<?xml version="1.0" encoding="UTF-8" standalone="no" ?>
<gpx xmlns="http://www.topografix.com/GPX/1/1" xmlns:xsi="http://www.w3.org/2001/XMLSchema-instance" xsi:schemaLocation="http://www.topografix.com/GPX/1/1 http://www.topografix.com/GPX/1/1/gpx.xsd" version="1.1" creator="VisuGPX - https://www.visugpx.com">
  <metadata>
    <name>2021-03-13-Monte Fauniera</name>
    <desc><![CDATA[AlpineQuest Track 13/03/21 08:19:04]]></desc>
  </metadata>
  <trk>
    <name><![CDATA[2021-03-13-Monte Fauniera_1]]></name>
    <trkseg>
      <trkpt lat="44.39762" lon="7.17362">
        <ele>1615.277</ele>
        <time>2021-03-13T07:19:04Z</time>
      </trkpt>
      <trkpt lat="44.39756" lon="7.17357">
        <ele>1618.211</ele>
        <time>2021-03-13T07:20:29Z</time>
      </trkpt>
      <trkpt lat="44.39755" lon="7.17347">
        <ele>1616.789</ele>
        <time>2021-03-13T07:20:35Z</time>
      </trkpt>
      <trkpt lat="44.39752" lon="7.17339">
        <ele>1615.916</ele>
        <time>2021-03-13T07:20:40Z</time>
      </trkpt>
      <trkpt lat="44.3975" lon="7.17329">
        <ele>1615.714</ele>
        <time>2021-03-13T07:20:47Z</time>
      </trkpt>
      <trkpt lat="44.39749" lon="7.17319">
        <ele>1616.029</ele>
        <time>2021-03-13T07:20:54Z</time>
      </trkpt>
      <trkpt lat="44.39748" lon="7.1731">
        <ele>1616.454</ele>
        <time>2021-03-13T07:21:00Z</time>
      </trkpt>
      <trkpt lat="44.39747" lon="7.17301">
        <ele>1614.223</ele>
        <time>2021-03-13T07:21:08Z</time>
      </trkpt>
      <trkpt lat="44.39747" lon="7.17291">
        <ele>1613.015</ele>
        <time>2021-03-13T07:21:15Z</time>
      </trkpt>
      <trkpt lat="44.39746" lon="7.17281">
        <ele>1614.132</ele>
        <time>2021-03-13T07:21:23Z</time>
      </trkpt>
      <trkpt lat="44.39746" lon="7.17272">
        <ele>1614.194</ele>
        <time>2021-03-13T07:21:31Z</time>
      </trkpt>
      <trkpt lat="44.39746" lon="7.17262">
        <ele>1615.614</ele>
        <time>2021-03-13T07:21:39Z</time>
      </trkpt>
      <trkpt lat="44.39746" lon="7.17252">
        <ele>1615.628</ele>
        <time>2021-03-13T07:21:47Z</time>
      </trkpt>
      <trkpt lat="44.39747" lon="7.17242">
        <ele>1616.968</ele>
        <time>2021-03-13T07:21:54Z</time>
      </trkpt>
      <trkpt lat="44.39748" lon="7.17232">
        <ele>1615.394</ele>
        <time>2021-03-13T07:22:02Z</time>
      </trkpt>
      <trkpt lat="44.39749" lon="7.17222">
        <ele>1618.227</ele>
        <time>2021-03-13T07:22:09Z</time>
      </trkpt>
      <trkpt lat="44.39749" lon="7.17212">
        <ele>1620.456</ele>
        <time>2021-03-13T07:22:14Z</time>
      </trkpt>
      <trkpt lat="44.39748" lon="7.172">
        <ele>1623.77</ele>
        <time>2021-03-13T07:22:19Z</time>
      </trkpt>
      <trkpt lat="44.39743" lon="7.17192">
        <ele>1622.513</ele>
        <time>2021-03-13T07:22:27Z</time>
      </trkpt>
      <trkpt lat="44.39739" lon="7.17184">
        <ele>1628.335</ele>
        <time>2021-03-13T07:22:32Z</time>
      </trkpt>
      <trkpt lat="44.39735" lon="7.17176">
        <ele>1629.568</ele>
        <time>2021-03-13T07:22:37Z</time>
      </trkpt>
      <trkpt lat="44.39734" lon="7.17167">
        <ele>1633.561</ele>
        <time>2021-03-13T07:22:43Z</time>
      </trkpt>
      <trkpt lat="44.39737" lon="7.17187">
        <ele>1607.977</ele>
        <time>2021-03-13T07:22:48Z</time>
      </trkpt>
      <trkpt lat="44.39729" lon="7.17183">
        <ele>1612.499</ele>
        <time>2021-03-13T07:22:55Z</time>
      </trkpt>
      <trkpt lat="44.39723" lon="7.17184">
        <ele>1611.798</ele>
        <time>2021-03-13T07:23:02Z</time>
      </trkpt>
      <trkpt lat="44.39716" lon="7.17187">
        <ele>1616.431</ele>
        <time>2021-03-13T07:23:11Z</time>
      </trkpt>
      <trkpt lat="44.3971" lon="7.17189">
        <ele>1620.309</ele>
        <time>2021-03-13T07:23:18Z</time>
      </trkpt>
      <trkpt lat="44.39703" lon="7.1719">
        <ele>1622.258</ele>
        <time>2021-03-13T07:23:25Z</time>
      </trkpt>
      <trkpt lat="44.39697" lon="7.17186">
        <ele>1622.223</ele>
        <time>2021-03-13T07:23:32Z</time>
      </trkpt>
      <trkpt lat="44.39692" lon="7.1718">
        <ele>1621.034</ele>
        <time>2021-03-13T07:23:39Z</time>
      </trkpt>
      <trkpt lat="44.39684" lon="7.17179">
        <ele>1619.035</ele>
        <time>2021-03-13T07:24:13Z</time>
      </trkpt>
      <trkpt lat="44.39683" lon="7.1717">
        <ele>1618.113</ele>
        <time>2021-03-13T07:24:22Z</time>
      </trkpt>
      <trkpt lat="44.39684" lon="7.17161">
        <ele>1621.88</ele>
        <time>2021-03-13T07:24:29Z</time>
      </trkpt>
      <trkpt lat="44.39684" lon="7.17152">
        <ele>1620.128</ele>
        <time>2021-03-13T07:25:02Z</time>
      </trkpt>
      <trkpt lat="44.39683" lon="7.17142">
        <ele>1716.97</ele>
        <time>2021-03-13T07:25:14Z</time>
      </trkpt>
      <trkpt lat="44.39685" lon="7.17133">
        <ele>1668.17</ele>
        <time>2021-03-13T07:25:25Z</time>
      </trkpt>
      <trkpt lat="44.39687" lon="7.17123">
        <ele>1696.509</ele>
        <time>2021-03-13T07:25:35Z</time>
      </trkpt>
      <trkpt lat="44.39687" lon="7.17114">
        <ele>1713.224</ele>
        <time>2021-03-13T07:25:45Z</time>
      </trkpt>
      <trkpt lat="44.39689" lon="7.17105">
        <ele>1709.71</ele>
        <time>2021-03-13T07:26:00Z</time>
      </trkpt>
      <trkpt lat="44.3969" lon="7.17095">
        <ele>1685.044</ele>
        <time>2021-03-13T07:26:13Z</time>
      </trkpt>
      <trkpt lat="44.39689" lon="7.17086">
        <ele>1633.502</ele>
        <time>2021-03-13T07:26:24Z</time>
      </trkpt>
      <trkpt lat="44.39687" lon="7.17076">
        <ele>1722.475</ele>
        <time>2021-03-13T07:26:34Z</time>
      </trkpt>
      <trkpt lat="44.3969" lon="7.17067">
        <ele>1728.349</ele>
        <time>2021-03-13T07:26:44Z</time>
      </trkpt>
      <trkpt lat="44.39692" lon="7.17059">
        <ele>1726.185</ele>
        <time>2021-03-13T07:26:55Z</time>
      </trkpt>
      <trkpt lat="44.39692" lon="7.17049">
        <ele>1713.442</ele>
        <time>2021-03-13T07:27:04Z</time>
      </trkpt>
      <trkpt lat="44.39688" lon="7.17042">
        <ele>1684.351</ele>
        <time>2021-03-13T07:27:20Z</time>
      </trkpt>
      <trkpt lat="44.39687" lon="7.17033">
        <ele>1667.867</ele>
        <time>2021-03-13T07:27:33Z</time>
      </trkpt>
      <trkpt lat="44.39681" lon="7.1703">
        <ele>1693.351</ele>
        <time>2021-03-13T07:27:50Z</time>
      </trkpt>
      <trkpt lat="44.3968" lon="7.17021">
        <ele>1688.439</ele>
        <time>2021-03-13T07:28:04Z</time>
      </trkpt>
      <trkpt lat="44.39676" lon="7.17013">
        <ele>1697.274</ele>
        <time>2021-03-13T07:28:16Z</time>
      </trkpt>
      <trkpt lat="44.39673" lon="7.17004">
        <ele>1674.549</ele>
        <time>2021-03-13T07:28:29Z</time>
      </trkpt>
      <trkpt lat="44.39667" lon="7.17009">
        <ele>1667.191</ele>
        <time>2021-03-13T07:28:44Z</time>
      </trkpt>
      <trkpt lat="44.3966" lon="7.17006">
        <ele>1667.266</ele>
        <time>2021-03-13T07:29:02Z</time>
      </trkpt>
      <trkpt lat="44.39658" lon="7.16997">
        <ele>1668.243</ele>
        <time>2021-03-13T07:29:15Z</time>
      </trkpt>
      <trkpt lat="44.39658" lon="7.16988">
        <ele>1667.858</ele>
        <time>2021-03-13T07:29:26Z</time>
      </trkpt>
      <trkpt lat="44.39657" lon="7.16979">
        <ele>1668.956</ele>
        <time>2021-03-13T07:29:38Z</time>
      </trkpt>
      <trkpt lat="44.39651" lon="7.16982">
        <ele>1672.703</ele>
        <time>2021-03-13T07:29:52Z</time>
      </trkpt>
      <trkpt lat="44.39656" lon="7.16988">
        <ele>1661.193</ele>
        <time>2021-03-13T07:30:08Z</time>
      </trkpt>
      <trkpt lat="44.39659" lon="7.16979">
        <ele>1659.881</ele>
        <time>2021-03-13T07:30:17Z</time>
      </trkpt>
      <trkpt lat="44.3966" lon="7.1697">
        <ele>1658.015</ele>
        <time>2021-03-13T07:30:25Z</time>
      </trkpt>
      <trkpt lat="44.39662" lon="7.1696">
        <ele>1666.907</ele>
        <time>2021-03-13T07:30:36Z</time>
      </trkpt>
      <trkpt lat="44.39663" lon="7.1695">
        <ele>1662.978</ele>
        <time>2021-03-13T07:30:45Z</time>
      </trkpt>
      <trkpt lat="44.39665" lon="7.16942">
        <ele>1669.009</ele>
        <time>2021-03-13T07:30:53Z</time>
      </trkpt>
      <trkpt lat="44.39667" lon="7.16933">
        <ele>1675.446</ele>
        <time>2021-03-13T07:31:09Z</time>
      </trkpt>
      <trkpt lat="44.39672" lon="7.16927">
        <ele>1675.268</ele>
        <time>2021-03-13T07:31:18Z</time>
      </trkpt>
      <trkpt lat="44.39678" lon="7.16922">
        <ele>1679.474</ele>
        <time>2021-03-13T07:31:29Z</time>
      </trkpt>
      <trkpt lat="44.39684" lon="7.16917">
        <ele>1684.132</ele>
        <time>2021-03-13T07:31:41Z</time>
      </trkpt>
      <trkpt lat="44.39688" lon="7.1691">
        <ele>1662.095</ele>
        <time>2021-03-13T07:31:51Z</time>
      </trkpt>
      <trkpt lat="44.39689" lon="7.16901">
        <ele>1685.993</ele>
        <time>2021-03-13T07:32:03Z</time>
      </trkpt>
      <trkpt lat="44.39692" lon="7.16892">
        <ele>1685.601</ele>
        <time>2021-03-13T07:32:15Z</time>
      </trkpt>
      <trkpt lat="44.39692" lon="7.16883">
        <ele>1683.23</ele>
        <time>2021-03-13T07:32:28Z</time>
      </trkpt>
      <trkpt lat="44.39693" lon="7.16874">
        <ele>1681.123</ele>
        <time>2021-03-13T07:32:36Z</time>
      </trkpt>
      <trkpt lat="44.39689" lon="7.16866">
        <ele>1678.792</ele>
        <time>2021-03-13T07:32:48Z</time>
      </trkpt>
      <trkpt lat="44.39685" lon="7.16858">
        <ele>1679.179</ele>
        <time>2021-03-13T07:33:01Z</time>
      </trkpt>
      <trkpt lat="44.39681" lon="7.16851">
        <ele>1681.563</ele>
        <time>2021-03-13T07:33:15Z</time>
      </trkpt>
      <trkpt lat="44.39681" lon="7.16841">
        <ele>1682.88</ele>
        <time>2021-03-13T07:33:26Z</time>
      </trkpt>
      <trkpt lat="44.39679" lon="7.16832">
        <ele>1684.641</ele>
        <time>2021-03-13T07:33:40Z</time>
      </trkpt>
      <trkpt lat="44.39674" lon="7.16825">
        <ele>1689.162</ele>
        <time>2021-03-13T07:33:54Z</time>
      </trkpt>
      <trkpt lat="44.39667" lon="7.16822">
        <ele>1698.68</ele>
        <time>2021-03-13T07:34:02Z</time>
      </trkpt>
      <trkpt lat="44.39661" lon="7.1682">
        <ele>1709.326</ele>
        <time>2021-03-13T07:34:17Z</time>
      </trkpt>
      <trkpt lat="44.39654" lon="7.16818">
        <ele>1710.762</ele>
        <time>2021-03-13T07:34:29Z</time>
      </trkpt>
      <trkpt lat="44.39648" lon="7.16812">
        <ele>1709.817</ele>
        <time>2021-03-13T07:34:46Z</time>
      </trkpt>
      <trkpt lat="44.39646" lon="7.16803">
        <ele>1685.571</ele>
        <time>2021-03-13T07:35:02Z</time>
      </trkpt>
      <trkpt lat="44.39643" lon="7.16795">
        <ele>1708.819</ele>
        <time>2021-03-13T07:35:10Z</time>
      </trkpt>
      <trkpt lat="44.3964" lon="7.16787">
        <ele>1715.163</ele>
        <time>2021-03-13T07:35:23Z</time>
      </trkpt>
      <trkpt lat="44.39634" lon="7.16781">
        <ele>1718.674</ele>
        <time>2021-03-13T07:37:29Z</time>
      </trkpt>
      <trkpt lat="44.39628" lon="7.16775">
        <ele>1717.239</ele>
        <time>2021-03-13T07:37:39Z</time>
      </trkpt>
      <trkpt lat="44.39623" lon="7.1677">
        <ele>1714.661</ele>
        <time>2021-03-13T07:37:52Z</time>
      </trkpt>
      <trkpt lat="44.39619" lon="7.16762">
        <ele>1713.998</ele>
        <time>2021-03-13T07:38:03Z</time>
      </trkpt>
      <trkpt lat="44.39615" lon="7.16754">
        <ele>1712.151</ele>
        <time>2021-03-13T07:38:15Z</time>
      </trkpt>
      <trkpt lat="44.3961" lon="7.16747">
        <ele>1711.495</ele>
        <time>2021-03-13T07:38:25Z</time>
      </trkpt>
      <trkpt lat="44.39605" lon="7.16739">
        <ele>1716.155</ele>
        <time>2021-03-13T07:38:36Z</time>
      </trkpt>
      <trkpt lat="44.39601" lon="7.16731">
        <ele>1715.717</ele>
        <time>2021-03-13T07:38:45Z</time>
      </trkpt>
      <trkpt lat="44.39597" lon="7.16723">
        <ele>1718.233</ele>
        <time>2021-03-13T07:38:54Z</time>
      </trkpt>
      <trkpt lat="44.39593" lon="7.16715">
        <ele>1716.913</ele>
        <time>2021-03-13T07:39:04Z</time>
      </trkpt>
      <trkpt lat="44.3959" lon="7.16707">
        <ele>1714.633</ele>
        <time>2021-03-13T07:39:14Z</time>
      </trkpt>
      <trkpt lat="44.39587" lon="7.16698">
        <ele>1721.718</ele>
        <time>2021-03-13T07:39:23Z</time>
      </trkpt>
      <trkpt lat="44.39585" lon="7.16689">
        <ele>1706.93</ele>
        <time>2021-03-13T07:39:36Z</time>
      </trkpt>
      <trkpt lat="44.39582" lon="7.1668">
        <ele>1702.666</ele>
        <time>2021-03-13T07:39:48Z</time>
      </trkpt>
      <trkpt lat="44.39581" lon="7.16671">
        <ele>1699.093</ele>
        <time>2021-03-13T07:39:56Z</time>
      </trkpt>
      <trkpt lat="44.3958" lon="7.16662">
        <ele>1711.375</ele>
        <time>2021-03-13T07:40:06Z</time>
      </trkpt>
      <trkpt lat="44.39579" lon="7.16653">
        <ele>1712.741</ele>
        <time>2021-03-13T07:40:18Z</time>
      </trkpt>
      <trkpt lat="44.39577" lon="7.16644">
        <ele>1716.573</ele>
        <time>2021-03-13T07:40:30Z</time>
      </trkpt>
      <trkpt lat="44.39574" lon="7.16635">
        <ele>1707.427</ele>
        <time>2021-03-13T07:40:42Z</time>
      </trkpt>
      <trkpt lat="44.39572" lon="7.16625">
        <ele>1715.079</ele>
        <time>2021-03-13T07:40:54Z</time>
      </trkpt>
      <trkpt lat="44.3957" lon="7.16616">
        <ele>1705.981</ele>
        <time>2021-03-13T07:41:17Z</time>
      </trkpt>
      <trkpt lat="44.39575" lon="7.16611">
        <ele>1707.9</ele>
        <time>2021-03-13T07:41:58Z</time>
      </trkpt>
      <trkpt lat="44.39577" lon="7.16602">
        <ele>1709.795</ele>
        <time>2021-03-13T07:42:07Z</time>
      </trkpt>
      <trkpt lat="44.39576" lon="7.16593">
        <ele>1711.83</ele>
        <time>2021-03-13T07:42:15Z</time>
      </trkpt>
      <trkpt lat="44.39574" lon="7.16583">
        <ele>1709.817</ele>
        <time>2021-03-13T07:42:23Z</time>
      </trkpt>
      <trkpt lat="44.39572" lon="7.16575">
        <ele>1707.828</ele>
        <time>2021-03-13T07:42:31Z</time>
      </trkpt>
      <trkpt lat="44.3957" lon="7.16566">
        <ele>1703.877</ele>
        <time>2021-03-13T07:42:42Z</time>
      </trkpt>
      <trkpt lat="44.39566" lon="7.16558">
        <ele>1701.066</ele>
        <time>2021-03-13T07:42:54Z</time>
      </trkpt>
      <trkpt lat="44.39562" lon="7.1655">
        <ele>1709.41</ele>
        <time>2021-03-13T07:43:01Z</time>
      </trkpt>
      <trkpt lat="44.3956" lon="7.16541">
        <ele>1706.869</ele>
        <time>2021-03-13T07:43:10Z</time>
      </trkpt>
      <trkpt lat="44.39559" lon="7.16532">
        <ele>1692.588</ele>
        <time>2021-03-13T07:43:17Z</time>
      </trkpt>
      <trkpt lat="44.39556" lon="7.16523">
        <ele>1692.468</ele>
        <time>2021-03-13T07:43:25Z</time>
      </trkpt>
      <trkpt lat="44.39553" lon="7.16514">
        <ele>1692.218</ele>
        <time>2021-03-13T07:43:33Z</time>
      </trkpt>
      <trkpt lat="44.39551" lon="7.16505">
        <ele>1688.055</ele>
        <time>2021-03-13T07:43:42Z</time>
      </trkpt>
      <trkpt lat="44.3955" lon="7.16496">
        <ele>1687.68</ele>
        <time>2021-03-13T07:43:51Z</time>
      </trkpt>
      <trkpt lat="44.39548" lon="7.16486">
        <ele>1696.961</ele>
        <time>2021-03-13T07:44:00Z</time>
      </trkpt>
      <trkpt lat="44.39548" lon="7.16477">
        <ele>1674.489</ele>
        <time>2021-03-13T07:44:13Z</time>
      </trkpt>
      <trkpt lat="44.39546" lon="7.16467">
        <ele>1691.31</ele>
        <time>2021-03-13T07:44:22Z</time>
      </trkpt>
      <trkpt lat="44.39543" lon="7.16458">
        <ele>1705.552</ele>
        <time>2021-03-13T07:44:30Z</time>
      </trkpt>
      <trkpt lat="44.3954" lon="7.16449">
        <ele>1709.897</ele>
        <time>2021-03-13T07:44:39Z</time>
      </trkpt>
      <trkpt lat="44.39536" lon="7.16442">
        <ele>1709.819</ele>
        <time>2021-03-13T07:44:48Z</time>
      </trkpt>
      <trkpt lat="44.39531" lon="7.16434">
        <ele>1707.182</ele>
        <time>2021-03-13T07:44:56Z</time>
      </trkpt>
      <trkpt lat="44.39527" lon="7.16426">
        <ele>1690.126</ele>
        <time>2021-03-13T07:45:04Z</time>
      </trkpt>
      <trkpt lat="44.39524" lon="7.16417">
        <ele>1686.405</ele>
        <time>2021-03-13T07:45:12Z</time>
      </trkpt>
      <trkpt lat="44.3952" lon="7.16409">
        <ele>1688.919</ele>
        <time>2021-03-13T07:45:20Z</time>
      </trkpt>
      <trkpt lat="44.39514" lon="7.16403">
        <ele>1690.509</ele>
        <time>2021-03-13T07:45:30Z</time>
      </trkpt>
      <trkpt lat="44.39509" lon="7.16397">
        <ele>1696.67</ele>
        <time>2021-03-13T07:45:51Z</time>
      </trkpt>
      <trkpt lat="44.39504" lon="7.1639">
        <ele>1686.681</ele>
        <time>2021-03-13T07:48:18Z</time>
      </trkpt>
      <trkpt lat="44.395" lon="7.16381">
        <ele>1692.254</ele>
        <time>2021-03-13T07:48:28Z</time>
      </trkpt>
      <trkpt lat="44.39496" lon="7.16375">
        <ele>1694.622</ele>
        <time>2021-03-13T07:48:37Z</time>
      </trkpt>
      <trkpt lat="44.39491" lon="7.16367">
        <ele>1692.512</ele>
        <time>2021-03-13T07:48:45Z</time>
      </trkpt>
      <trkpt lat="44.39487" lon="7.16359">
        <ele>1700.141</ele>
        <time>2021-03-13T07:48:53Z</time>
      </trkpt>
      <trkpt lat="44.39483" lon="7.16351">
        <ele>1704.635</ele>
        <time>2021-03-13T07:49:00Z</time>
      </trkpt>
      <trkpt lat="44.39479" lon="7.16343">
        <ele>1705.913</ele>
        <time>2021-03-13T07:49:08Z</time>
      </trkpt>
      <trkpt lat="44.39476" lon="7.16336">
        <ele>1705.461</ele>
        <time>2021-03-13T07:49:16Z</time>
      </trkpt>
      <trkpt lat="44.39472" lon="7.16327">
        <ele>1704.934</ele>
        <time>2021-03-13T07:49:23Z</time>
      </trkpt>
      <trkpt lat="44.39468" lon="7.16319">
        <ele>1705.277</ele>
        <time>2021-03-13T07:49:31Z</time>
      </trkpt>
      <trkpt lat="44.39465" lon="7.16311">
        <ele>1702.727</ele>
        <time>2021-03-13T07:49:39Z</time>
      </trkpt>
      <trkpt lat="44.39461" lon="7.16303">
        <ele>1703.792</ele>
        <time>2021-03-13T07:49:50Z</time>
      </trkpt>
      <trkpt lat="44.39456" lon="7.16296">
        <ele>1703.943</ele>
        <time>2021-03-13T07:49:59Z</time>
      </trkpt>
      <trkpt lat="44.39456" lon="7.16287">
        <ele>1706.874</ele>
        <time>2021-03-13T07:50:08Z</time>
      </trkpt>
      <trkpt lat="44.39455" lon="7.16277">
        <ele>1710.251</ele>
        <time>2021-03-13T07:50:15Z</time>
      </trkpt>
      <trkpt lat="44.39453" lon="7.16268">
        <ele>1712.894</ele>
        <time>2021-03-13T07:50:23Z</time>
      </trkpt>
      <trkpt lat="44.39451" lon="7.16259">
        <ele>1710.155</ele>
        <time>2021-03-13T07:50:32Z</time>
      </trkpt>
      <trkpt lat="44.39448" lon="7.1625">
        <ele>1711.936</ele>
        <time>2021-03-13T07:50:41Z</time>
      </trkpt>
      <trkpt lat="44.39445" lon="7.1624">
        <ele>1709.937</ele>
        <time>2021-03-13T07:50:53Z</time>
      </trkpt>
      <trkpt lat="44.39446" lon="7.16231">
        <ele>1716.589</ele>
        <time>2021-03-13T07:51:00Z</time>
      </trkpt>
      <trkpt lat="44.39449" lon="7.16222">
        <ele>1718.458</ele>
        <time>2021-03-13T07:52:26Z</time>
      </trkpt>
      <trkpt lat="44.3945" lon="7.16212">
        <ele>1722.718</ele>
        <time>2021-03-13T07:52:37Z</time>
      </trkpt>
      <trkpt lat="44.39447" lon="7.16222">
        <ele>1734.788</ele>
        <time>2021-03-13T07:53:15Z</time>
      </trkpt>
      <trkpt lat="44.39446" lon="7.16213">
        <ele>1738.455</ele>
        <time>2021-03-13T07:53:43Z</time>
      </trkpt>
      <trkpt lat="44.39445" lon="7.16203">
        <ele>1737.068</ele>
        <time>2021-03-13T07:53:54Z</time>
      </trkpt>
      <trkpt lat="44.39441" lon="7.16195">
        <ele>1738.356</ele>
        <time>2021-03-13T07:54:03Z</time>
      </trkpt>
      <trkpt lat="44.39437" lon="7.16188">
        <ele>1738.149</ele>
        <time>2021-03-13T07:54:13Z</time>
      </trkpt>
      <trkpt lat="44.39432" lon="7.16182">
        <ele>1738.149</ele>
        <time>2021-03-13T07:54:25Z</time>
      </trkpt>
      <trkpt lat="44.39427" lon="7.16174">
        <ele>1737.615</ele>
        <time>2021-03-13T07:54:34Z</time>
      </trkpt>
      <trkpt lat="44.39426" lon="7.16165">
        <ele>1740.31</ele>
        <time>2021-03-13T07:54:48Z</time>
      </trkpt>
      <trkpt lat="44.39423" lon="7.16157">
        <ele>1741.2</ele>
        <time>2021-03-13T07:55:11Z</time>
      </trkpt>
      <trkpt lat="44.39419" lon="7.16149">
        <ele>1742.075</ele>
        <time>2021-03-13T07:55:20Z</time>
      </trkpt>
      <trkpt lat="44.39416" lon="7.16141">
        <ele>1742.424</ele>
        <time>2021-03-13T07:55:30Z</time>
      </trkpt>
      <trkpt lat="44.39412" lon="7.16133">
        <ele>1743.612</ele>
        <time>2021-03-13T07:55:40Z</time>
      </trkpt>
      <trkpt lat="44.39412" lon="7.16123">
        <ele>1748.063</ele>
        <time>2021-03-13T07:55:50Z</time>
      </trkpt>
      <trkpt lat="44.3941" lon="7.16114">
        <ele>1738.129</ele>
        <time>2021-03-13T07:56:01Z</time>
      </trkpt>
      <trkpt lat="44.3941" lon="7.16105">
        <ele>1747.191</ele>
        <time>2021-03-13T07:56:10Z</time>
      </trkpt>
      <trkpt lat="44.39407" lon="7.16096">
        <ele>1752.401</ele>
        <time>2021-03-13T07:56:23Z</time>
      </trkpt>
      <trkpt lat="44.39402" lon="7.16092">
        <ele>1755.051</ele>
        <time>2021-03-13T07:56:35Z</time>
      </trkpt>
      <trkpt lat="44.39399" lon="7.16083">
        <ele>1758.623</ele>
        <time>2021-03-13T07:56:46Z</time>
      </trkpt>
      <trkpt lat="44.39399" lon="7.16073">
        <ele>1763.014</ele>
        <time>2021-03-13T07:56:57Z</time>
      </trkpt>
      <trkpt lat="44.394" lon="7.16064">
        <ele>1762.95</ele>
        <time>2021-03-13T07:57:09Z</time>
      </trkpt>
      <trkpt lat="44.39396" lon="7.16053">
        <ele>1765.838</ele>
        <time>2021-03-13T07:57:43Z</time>
      </trkpt>
      <trkpt lat="44.39393" lon="7.16045">
        <ele>1766.812</ele>
        <time>2021-03-13T07:57:54Z</time>
      </trkpt>
      <trkpt lat="44.39387" lon="7.16039">
        <ele>1767.306</ele>
        <time>2021-03-13T07:58:03Z</time>
      </trkpt>
      <trkpt lat="44.39385" lon="7.1603">
        <ele>1769.515</ele>
        <time>2021-03-13T07:58:11Z</time>
      </trkpt>
      <trkpt lat="44.39382" lon="7.16021">
        <ele>1770.72</ele>
        <time>2021-03-13T07:58:18Z</time>
      </trkpt>
      <trkpt lat="44.39381" lon="7.16012">
        <ele>1779.58</ele>
        <time>2021-03-13T07:58:29Z</time>
      </trkpt>
      <trkpt lat="44.39383" lon="7.16002">
        <ele>1788.059</ele>
        <time>2021-03-13T07:58:39Z</time>
      </trkpt>
      <trkpt lat="44.39377" lon="7.15998">
        <ele>1792.503</ele>
        <time>2021-03-13T07:58:54Z</time>
      </trkpt>
      <trkpt lat="44.39382" lon="7.15991">
        <ele>1796.815</ele>
        <time>2021-03-13T07:59:08Z</time>
      </trkpt>
      <trkpt lat="44.39388" lon="7.15987">
        <ele>1792.667</ele>
        <time>2021-03-13T07:59:22Z</time>
      </trkpt>
      <trkpt lat="44.39393" lon="7.15981">
        <ele>1796.791</ele>
        <time>2021-03-13T07:59:33Z</time>
      </trkpt>
      <trkpt lat="44.39397" lon="7.15974">
        <ele>1798.185</ele>
        <time>2021-03-13T07:59:43Z</time>
      </trkpt>
      <trkpt lat="44.39401" lon="7.15966">
        <ele>1799.785</ele>
        <time>2021-03-13T08:00:29Z</time>
      </trkpt>
      <trkpt lat="44.39406" lon="7.15959">
        <ele>1799.562</ele>
        <time>2021-03-13T08:00:39Z</time>
      </trkpt>
      <trkpt lat="44.39412" lon="7.15956">
        <ele>1799.526</ele>
        <time>2021-03-13T08:00:48Z</time>
      </trkpt>
      <trkpt lat="44.39419" lon="7.15951">
        <ele>1800.386</ele>
        <time>2021-03-13T08:00:57Z</time>
      </trkpt>
      <trkpt lat="44.39425" lon="7.15946">
        <ele>1801.055</ele>
        <time>2021-03-13T08:01:06Z</time>
      </trkpt>
      <trkpt lat="44.39428" lon="7.15937">
        <ele>1806.466</ele>
        <time>2021-03-13T08:01:20Z</time>
      </trkpt>
      <trkpt lat="44.39431" lon="7.15929">
        <ele>1773.823</ele>
        <time>2021-03-13T08:01:32Z</time>
      </trkpt>
      <trkpt lat="44.39433" lon="7.15921">
        <ele>1751.772</ele>
        <time>2021-03-13T08:01:46Z</time>
      </trkpt>
      <trkpt lat="44.39438" lon="7.15914">
        <ele>1816.761</ele>
        <time>2021-03-13T08:03:17Z</time>
      </trkpt>
      <trkpt lat="44.39431" lon="7.15915">
        <ele>1790.595</ele>
        <time>2021-03-13T08:05:56Z</time>
      </trkpt>
      <trkpt lat="44.3943" lon="7.15906">
        <ele>1817.691</ele>
        <time>2021-03-13T08:06:55Z</time>
      </trkpt>
      <trkpt lat="44.39428" lon="7.15897">
        <ele>1825.473</ele>
        <time>2021-03-13T08:09:35Z</time>
      </trkpt>
      <trkpt lat="44.39431" lon="7.15889">
        <ele>1824.622</ele>
        <time>2021-03-13T08:09:46Z</time>
      </trkpt>
      <trkpt lat="44.39432" lon="7.1588">
        <ele>1826.5</ele>
        <time>2021-03-13T08:09:55Z</time>
      </trkpt>
      <trkpt lat="44.39433" lon="7.1587">
        <ele>1829.559</ele>
        <time>2021-03-13T08:10:04Z</time>
      </trkpt>
      <trkpt lat="44.39435" lon="7.1586">
        <ele>1831.506</ele>
        <time>2021-03-13T08:10:13Z</time>
      </trkpt>
      <trkpt lat="44.39437" lon="7.15851">
        <ele>1834.957</ele>
        <time>2021-03-13T08:10:22Z</time>
      </trkpt>
      <trkpt lat="44.3944" lon="7.15843">
        <ele>1808.781</ele>
        <time>2021-03-13T08:10:31Z</time>
      </trkpt>
      <trkpt lat="44.39443" lon="7.15834">
        <ele>1829.913</ele>
        <time>2021-03-13T08:10:40Z</time>
      </trkpt>
      <trkpt lat="44.39443" lon="7.15825">
        <ele>1832.409</ele>
        <time>2021-03-13T08:10:51Z</time>
      </trkpt>
      <trkpt lat="44.39442" lon="7.15816">
        <ele>1803.884</ele>
        <time>2021-03-13T08:11:14Z</time>
      </trkpt>
      <trkpt lat="44.39435" lon="7.15813">
        <ele>1836.023</ele>
        <time>2021-03-13T08:11:34Z</time>
      </trkpt>
      <trkpt lat="44.39428" lon="7.15815">
        <ele>1840.148</ele>
        <time>2021-03-13T08:11:43Z</time>
      </trkpt>
      <trkpt lat="44.39422" lon="7.15813">
        <ele>1844.285</ele>
        <time>2021-03-13T08:11:54Z</time>
      </trkpt>
      <trkpt lat="44.39415" lon="7.1581">
        <ele>1830.571</ele>
        <time>2021-03-13T08:12:06Z</time>
      </trkpt>
      <trkpt lat="44.39409" lon="7.15811">
        <ele>1847.29</ele>
        <time>2021-03-13T08:12:21Z</time>
      </trkpt>
      <trkpt lat="44.39402" lon="7.15808">
        <ele>1788.441</ele>
        <time>2021-03-13T08:12:31Z</time>
      </trkpt>
      <trkpt lat="44.39395" lon="7.15808">
        <ele>1835.887</ele>
        <time>2021-03-13T08:12:40Z</time>
      </trkpt>
      <trkpt lat="44.3939" lon="7.15804">
        <ele>1858.196</ele>
        <time>2021-03-13T08:12:56Z</time>
      </trkpt>
      <trkpt lat="44.39388" lon="7.15794">
        <ele>1861.373</ele>
        <time>2021-03-13T08:13:12Z</time>
      </trkpt>
      <trkpt lat="44.39384" lon="7.15786">
        <ele>1865.225</ele>
        <time>2021-03-13T08:13:24Z</time>
      </trkpt>
      <trkpt lat="44.39379" lon="7.1578">
        <ele>1867.925</ele>
        <time>2021-03-13T08:13:37Z</time>
      </trkpt>
      <trkpt lat="44.39372" lon="7.1578">
        <ele>1869.064</ele>
        <time>2021-03-13T08:13:48Z</time>
      </trkpt>
      <trkpt lat="44.39365" lon="7.15778">
        <ele>1872.343</ele>
        <time>2021-03-13T08:14:01Z</time>
      </trkpt>
      <trkpt lat="44.39362" lon="7.1577">
        <ele>1875.224</ele>
        <time>2021-03-13T08:14:19Z</time>
      </trkpt>
      <trkpt lat="44.3936" lon="7.1576">
        <ele>1867.909</ele>
        <time>2021-03-13T08:14:31Z</time>
      </trkpt>
      <trkpt lat="44.39362" lon="7.15751">
        <ele>1873.998</ele>
        <time>2021-03-13T08:14:43Z</time>
      </trkpt>
      <trkpt lat="44.39363" lon="7.15742">
        <ele>1877.413</ele>
        <time>2021-03-13T08:14:55Z</time>
      </trkpt>
      <trkpt lat="44.3936" lon="7.15733">
        <ele>1832.064</ele>
        <time>2021-03-13T08:15:08Z</time>
      </trkpt>
      <trkpt lat="44.39357" lon="7.15724">
        <ele>1868.554</ele>
        <time>2021-03-13T08:15:22Z</time>
      </trkpt>
      <trkpt lat="44.39353" lon="7.15717">
        <ele>1870.408</ele>
        <time>2021-03-13T08:15:32Z</time>
      </trkpt>
      <trkpt lat="44.39351" lon="7.15708">
        <ele>1877.595</ele>
        <time>2021-03-13T08:15:42Z</time>
      </trkpt>
      <trkpt lat="44.39349" lon="7.15699">
        <ele>1886.477</ele>
        <time>2021-03-13T08:15:52Z</time>
      </trkpt>
      <trkpt lat="44.39346" lon="7.1569">
        <ele>1887.899</ele>
        <time>2021-03-13T08:16:02Z</time>
      </trkpt>
      <trkpt lat="44.39342" lon="7.15682">
        <ele>1890.674</ele>
        <time>2021-03-13T08:16:13Z</time>
      </trkpt>
      <trkpt lat="44.39338" lon="7.15675">
        <ele>1885.849</ele>
        <time>2021-03-13T08:16:23Z</time>
      </trkpt>
      <trkpt lat="44.39335" lon="7.15667">
        <ele>1829.755</ele>
        <time>2021-03-13T08:16:34Z</time>
      </trkpt>
      <trkpt lat="44.39333" lon="7.15658">
        <ele>1816.183</ele>
        <time>2021-03-13T08:16:44Z</time>
      </trkpt>
      <trkpt lat="44.39329" lon="7.1565">
        <ele>1888.478</ele>
        <time>2021-03-13T08:16:56Z</time>
      </trkpt>
      <trkpt lat="44.39325" lon="7.15642">
        <ele>1897.52</ele>
        <time>2021-03-13T08:17:30Z</time>
      </trkpt>
      <trkpt lat="44.3932" lon="7.15635">
        <ele>1898.999</ele>
        <time>2021-03-13T08:17:39Z</time>
      </trkpt>
      <trkpt lat="44.39316" lon="7.15627">
        <ele>1900.892</ele>
        <time>2021-03-13T08:17:50Z</time>
      </trkpt>
      <trkpt lat="44.39312" lon="7.15619">
        <ele>1902.497</ele>
        <time>2021-03-13T08:18:00Z</time>
      </trkpt>
      <trkpt lat="44.39308" lon="7.15612">
        <ele>1905.326</ele>
        <time>2021-03-13T08:18:10Z</time>
      </trkpt>
      <trkpt lat="44.39304" lon="7.15604">
        <ele>1905.806</ele>
        <time>2021-03-13T08:20:05Z</time>
      </trkpt>
      <trkpt lat="44.39298" lon="7.15598">
        <ele>1908.198</ele>
        <time>2021-03-13T08:20:13Z</time>
      </trkpt>
      <trkpt lat="44.39293" lon="7.1559">
        <ele>1910.254</ele>
        <time>2021-03-13T08:20:21Z</time>
      </trkpt>
      <trkpt lat="44.39289" lon="7.15583">
        <ele>1910.709</ele>
        <time>2021-03-13T08:20:29Z</time>
      </trkpt>
      <trkpt lat="44.39285" lon="7.15576">
        <ele>1912.627</ele>
        <time>2021-03-13T08:20:37Z</time>
      </trkpt>
      <trkpt lat="44.3928" lon="7.1557">
        <ele>1913.343</ele>
        <time>2021-03-13T08:20:46Z</time>
      </trkpt>
      <trkpt lat="44.39275" lon="7.15563">
        <ele>1915.544</ele>
        <time>2021-03-13T08:20:55Z</time>
      </trkpt>
      <trkpt lat="44.3927" lon="7.15555">
        <ele>1915.499</ele>
        <time>2021-03-13T08:21:04Z</time>
      </trkpt>
      <trkpt lat="44.39265" lon="7.15548">
        <ele>1915.527</ele>
        <time>2021-03-13T08:21:12Z</time>
      </trkpt>
      <trkpt lat="44.39259" lon="7.15543">
        <ele>1915.758</ele>
        <time>2021-03-13T08:21:21Z</time>
      </trkpt>
      <trkpt lat="44.39255" lon="7.15536">
        <ele>1912.086</ele>
        <time>2021-03-13T08:21:30Z</time>
      </trkpt>
      <trkpt lat="44.3925" lon="7.15529">
        <ele>1916.39</ele>
        <time>2021-03-13T08:21:38Z</time>
      </trkpt>
      <trkpt lat="44.39245" lon="7.15523">
        <ele>1915.91</ele>
        <time>2021-03-13T08:21:46Z</time>
      </trkpt>
      <trkpt lat="44.3924" lon="7.15515">
        <ele>1916.634</ele>
        <time>2021-03-13T08:21:54Z</time>
      </trkpt>
      <trkpt lat="44.39237" lon="7.15507">
        <ele>1918.105</ele>
        <time>2021-03-13T08:22:03Z</time>
      </trkpt>
      <trkpt lat="44.39234" lon="7.15497">
        <ele>1920.288</ele>
        <time>2021-03-13T08:22:13Z</time>
      </trkpt>
      <trkpt lat="44.3923" lon="7.15489">
        <ele>1920.508</ele>
        <time>2021-03-13T08:22:24Z</time>
      </trkpt>
      <trkpt lat="44.39225" lon="7.15483">
        <ele>1921.165</ele>
        <time>2021-03-13T08:22:52Z</time>
      </trkpt>
      <trkpt lat="44.3922" lon="7.15477">
        <ele>1921.241</ele>
        <time>2021-03-13T08:23:00Z</time>
      </trkpt>
      <trkpt lat="44.39216" lon="7.15469">
        <ele>1921.24</ele>
        <time>2021-03-13T08:23:08Z</time>
      </trkpt>
      <trkpt lat="44.39211" lon="7.15463">
        <ele>1922.442</ele>
        <time>2021-03-13T08:23:16Z</time>
      </trkpt>
      <trkpt lat="44.39207" lon="7.15456">
        <ele>1923.188</ele>
        <time>2021-03-13T08:23:25Z</time>
      </trkpt>
      <trkpt lat="44.39202" lon="7.15448">
        <ele>1924.058</ele>
        <time>2021-03-13T08:23:32Z</time>
      </trkpt>
      <trkpt lat="44.39198" lon="7.1544">
        <ele>1925.088</ele>
        <time>2021-03-13T08:23:39Z</time>
      </trkpt>
      <trkpt lat="44.39194" lon="7.15432">
        <ele>1926.104</ele>
        <time>2021-03-13T08:23:47Z</time>
      </trkpt>
      <trkpt lat="44.39189" lon="7.15426">
        <ele>1925.507</ele>
        <time>2021-03-13T08:23:56Z</time>
      </trkpt>
      <trkpt lat="44.39184" lon="7.15419">
        <ele>1924.661</ele>
        <time>2021-03-13T08:24:05Z</time>
      </trkpt>
      <trkpt lat="44.39182" lon="7.1541">
        <ele>1925.572</ele>
        <time>2021-03-13T08:24:21Z</time>
      </trkpt>
      <trkpt lat="44.39176" lon="7.15405">
        <ele>1923.914</ele>
        <time>2021-03-13T08:24:54Z</time>
      </trkpt>
      <trkpt lat="44.39171" lon="7.15399">
        <ele>1924.302</ele>
        <time>2021-03-13T08:25:05Z</time>
      </trkpt>
      <trkpt lat="44.39166" lon="7.15393">
        <ele>1928.011</ele>
        <time>2021-03-13T08:25:15Z</time>
      </trkpt>
      <trkpt lat="44.39161" lon="7.15387">
        <ele>1931.39</ele>
        <time>2021-03-13T08:25:28Z</time>
      </trkpt>
      <trkpt lat="44.39155" lon="7.15382">
        <ele>1933.612</ele>
        <time>2021-03-13T08:25:39Z</time>
      </trkpt>
      <trkpt lat="44.39149" lon="7.15378">
        <ele>1935.401</ele>
        <time>2021-03-13T08:25:49Z</time>
      </trkpt>
      <trkpt lat="44.39144" lon="7.15371">
        <ele>1938.044</ele>
        <time>2021-03-13T08:26:00Z</time>
      </trkpt>
      <trkpt lat="44.3914" lon="7.15364">
        <ele>1939.735</ele>
        <time>2021-03-13T08:26:12Z</time>
      </trkpt>
      <trkpt lat="44.39135" lon="7.15358">
        <ele>1939.289</ele>
        <time>2021-03-13T08:26:21Z</time>
      </trkpt>
      <trkpt lat="44.3913" lon="7.1535">
        <ele>1941.946</ele>
        <time>2021-03-13T08:26:33Z</time>
      </trkpt>
      <trkpt lat="44.39124" lon="7.15347">
        <ele>1944.63</ele>
        <time>2021-03-13T08:26:45Z</time>
      </trkpt>
      <trkpt lat="44.3913" lon="7.15342">
        <ele>1951.154</ele>
        <time>2021-03-13T08:27:15Z</time>
      </trkpt>
      <trkpt lat="44.39125" lon="7.15335">
        <ele>1957.448</ele>
        <time>2021-03-13T08:27:37Z</time>
      </trkpt>
      <trkpt lat="44.39132" lon="7.15331">
        <ele>1950.761</ele>
        <time>2021-03-13T08:28:13Z</time>
      </trkpt>
      <trkpt lat="44.39138" lon="7.15333">
        <ele>1953.324</ele>
        <time>2021-03-13T08:28:23Z</time>
      </trkpt>
      <trkpt lat="44.39131" lon="7.1533">
        <ele>1957.743</ele>
        <time>2021-03-13T08:32:07Z</time>
      </trkpt>
      <trkpt lat="44.39125" lon="7.15326">
        <ele>1958.174</ele>
        <time>2021-03-13T08:32:16Z</time>
      </trkpt>
      <trkpt lat="44.39126" lon="7.15317">
        <ele>1961.866</ele>
        <time>2021-03-13T08:33:46Z</time>
      </trkpt>
      <trkpt lat="44.39123" lon="7.15309">
        <ele>1961.712</ele>
        <time>2021-03-13T08:34:33Z</time>
      </trkpt>
      <trkpt lat="44.39119" lon="7.15301">
        <ele>1962.932</ele>
        <time>2021-03-13T08:34:43Z</time>
      </trkpt>
      <trkpt lat="44.39115" lon="7.15293">
        <ele>1966.478</ele>
        <time>2021-03-13T08:34:51Z</time>
      </trkpt>
      <trkpt lat="44.39111" lon="7.15286">
        <ele>1967.82</ele>
        <time>2021-03-13T08:35:01Z</time>
      </trkpt>
      <trkpt lat="44.39107" lon="7.15279">
        <ele>1967.814</ele>
        <time>2021-03-13T08:35:09Z</time>
      </trkpt>
      <trkpt lat="44.39103" lon="7.15271">
        <ele>1969.052</ele>
        <time>2021-03-13T08:35:18Z</time>
      </trkpt>
      <trkpt lat="44.39099" lon="7.15265">
        <ele>1972.005</ele>
        <time>2021-03-13T08:35:27Z</time>
      </trkpt>
      <trkpt lat="44.39093" lon="7.15258">
        <ele>1973.156</ele>
        <time>2021-03-13T08:35:36Z</time>
      </trkpt>
      <trkpt lat="44.39089" lon="7.15251">
        <ele>1972.427</ele>
        <time>2021-03-13T08:35:44Z</time>
      </trkpt>
      <trkpt lat="44.39084" lon="7.15244">
        <ele>1972.233</ele>
        <time>2021-03-13T08:35:53Z</time>
      </trkpt>
      <trkpt lat="44.39079" lon="7.15238">
        <ele>1975.617</ele>
        <time>2021-03-13T08:36:03Z</time>
      </trkpt>
      <trkpt lat="44.39075" lon="7.1523">
        <ele>1978.867</ele>
        <time>2021-03-13T08:36:13Z</time>
      </trkpt>
      <trkpt lat="44.39072" lon="7.15221">
        <ele>1980.636</ele>
        <time>2021-03-13T08:36:23Z</time>
      </trkpt>
      <trkpt lat="44.39069" lon="7.15212">
        <ele>1983.27</ele>
        <time>2021-03-13T08:36:33Z</time>
      </trkpt>
      <trkpt lat="44.39066" lon="7.15204">
        <ele>1984.016</ele>
        <time>2021-03-13T08:36:42Z</time>
      </trkpt>
      <trkpt lat="44.39062" lon="7.15197">
        <ele>1980.522</ele>
        <time>2021-03-13T08:36:49Z</time>
      </trkpt>
      <trkpt lat="44.3906" lon="7.15188">
        <ele>1857.837</ele>
        <time>2021-03-13T08:37:09Z</time>
      </trkpt>
      <trkpt lat="44.39056" lon="7.1518">
        <ele>1971.1</ele>
        <time>2021-03-13T08:37:19Z</time>
      </trkpt>
      <trkpt lat="44.39052" lon="7.15172">
        <ele>1979.411</ele>
        <time>2021-03-13T08:37:28Z</time>
      </trkpt>
      <trkpt lat="44.3905" lon="7.15163">
        <ele>1983.13</ele>
        <time>2021-03-13T08:37:37Z</time>
      </trkpt>
      <trkpt lat="44.3905" lon="7.15153">
        <ele>1981.503</ele>
        <time>2021-03-13T08:37:46Z</time>
      </trkpt>
      <trkpt lat="44.39049" lon="7.15143">
        <ele>1987.343</ele>
        <time>2021-03-13T08:37:55Z</time>
      </trkpt>
      <trkpt lat="44.39048" lon="7.15134">
        <ele>1984.154</ele>
        <time>2021-03-13T08:38:03Z</time>
      </trkpt>
      <trkpt lat="44.39047" lon="7.15125">
        <ele>1987.678</ele>
        <time>2021-03-13T08:38:12Z</time>
      </trkpt>
      <trkpt lat="44.39046" lon="7.15115">
        <ele>1989.505</ele>
        <time>2021-03-13T08:38:20Z</time>
      </trkpt>
      <trkpt lat="44.39045" lon="7.15106">
        <ele>1991.003</ele>
        <time>2021-03-13T08:38:28Z</time>
      </trkpt>
      <trkpt lat="44.39045" lon="7.15096">
        <ele>1990.72</ele>
        <time>2021-03-13T08:38:37Z</time>
      </trkpt>
      <trkpt lat="44.39045" lon="7.15087">
        <ele>1992.981</ele>
        <time>2021-03-13T08:38:45Z</time>
      </trkpt>
      <trkpt lat="44.39044" lon="7.15078">
        <ele>1988.101</ele>
        <time>2021-03-13T08:38:53Z</time>
      </trkpt>
      <trkpt lat="44.39043" lon="7.15068">
        <ele>1990.267</ele>
        <time>2021-03-13T08:39:00Z</time>
      </trkpt>
      <trkpt lat="44.39041" lon="7.15059">
        <ele>1949.635</ele>
        <time>2021-03-13T08:39:08Z</time>
      </trkpt>
      <trkpt lat="44.39041" lon="7.15049">
        <ele>1946.642</ele>
        <time>2021-03-13T08:39:16Z</time>
      </trkpt>
      <trkpt lat="44.39039" lon="7.1504">
        <ele>1957.637</ele>
        <time>2021-03-13T08:39:24Z</time>
      </trkpt>
      <trkpt lat="44.39039" lon="7.15031">
        <ele>1987.339</ele>
        <time>2021-03-13T08:39:35Z</time>
      </trkpt>
      <trkpt lat="44.39038" lon="7.15021">
        <ele>1982.454</ele>
        <time>2021-03-13T08:39:43Z</time>
      </trkpt>
      <trkpt lat="44.39036" lon="7.15012">
        <ele>1996.362</ele>
        <time>2021-03-13T08:42:47Z</time>
      </trkpt>
      <trkpt lat="44.39038" lon="7.15002">
        <ele>1997.232</ele>
        <time>2021-03-13T08:42:56Z</time>
      </trkpt>
      <trkpt lat="44.39036" lon="7.14993">
        <ele>1988.286</ele>
        <time>2021-03-13T08:43:04Z</time>
      </trkpt>
      <trkpt lat="44.39038" lon="7.14983">
        <ele>2000.676</ele>
        <time>2021-03-13T08:43:11Z</time>
      </trkpt>
      <trkpt lat="44.39038" lon="7.14973">
        <ele>1992.28</ele>
        <time>2021-03-13T08:43:18Z</time>
      </trkpt>
      <trkpt lat="44.39042" lon="7.14965">
        <ele>1998.829</ele>
        <time>2021-03-13T08:43:24Z</time>
      </trkpt>
      <trkpt lat="44.39047" lon="7.14958">
        <ele>1997.325</ele>
        <time>2021-03-13T08:43:33Z</time>
      </trkpt>
      <trkpt lat="44.39052" lon="7.14952">
        <ele>1979.239</ele>
        <time>2021-03-13T08:43:42Z</time>
      </trkpt>
      <trkpt lat="44.39058" lon="7.14947">
        <ele>1978.382</ele>
        <time>2021-03-13T08:43:49Z</time>
      </trkpt>
      <trkpt lat="44.39063" lon="7.14941">
        <ele>1980.625</ele>
        <time>2021-03-13T08:43:57Z</time>
      </trkpt>
      <trkpt lat="44.39067" lon="7.14933">
        <ele>2004.542</ele>
        <time>2021-03-13T08:44:05Z</time>
      </trkpt>
      <trkpt lat="44.3907" lon="7.14925">
        <ele>1985.345</ele>
        <time>2021-03-13T08:44:14Z</time>
      </trkpt>
      <trkpt lat="44.39073" lon="7.14917">
        <ele>1997.635</ele>
        <time>2021-03-13T08:44:23Z</time>
      </trkpt>
      <trkpt lat="44.39079" lon="7.14911">
        <ele>2007.32</ele>
        <time>2021-03-13T08:44:33Z</time>
      </trkpt>
      <trkpt lat="44.39086" lon="7.14909">
        <ele>2008.025</ele>
        <time>2021-03-13T08:44:42Z</time>
      </trkpt>
      <trkpt lat="44.39093" lon="7.14906">
        <ele>2009.357</ele>
        <time>2021-03-13T08:44:49Z</time>
      </trkpt>
      <trkpt lat="44.39099" lon="7.14903">
        <ele>2008.882</ele>
        <time>2021-03-13T08:44:57Z</time>
      </trkpt>
      <trkpt lat="44.39106" lon="7.14899">
        <ele>2009.211</ele>
        <time>2021-03-13T08:45:06Z</time>
      </trkpt>
      <trkpt lat="44.39112" lon="7.14895">
        <ele>2008.583</ele>
        <time>2021-03-13T08:45:13Z</time>
      </trkpt>
      <trkpt lat="44.39119" lon="7.14892">
        <ele>2008.974</ele>
        <time>2021-03-13T08:45:22Z</time>
      </trkpt>
      <trkpt lat="44.39125" lon="7.14888">
        <ele>2009.723</ele>
        <time>2021-03-13T08:45:30Z</time>
      </trkpt>
      <trkpt lat="44.39132" lon="7.14886">
        <ele>2009.846</ele>
        <time>2021-03-13T08:45:38Z</time>
      </trkpt>
      <trkpt lat="44.39139" lon="7.14883">
        <ele>2011.082</ele>
        <time>2021-03-13T08:45:47Z</time>
      </trkpt>
      <trkpt lat="44.39145" lon="7.1488">
        <ele>2009.795</ele>
        <time>2021-03-13T08:45:55Z</time>
      </trkpt>
      <trkpt lat="44.39151" lon="7.14875">
        <ele>2008.064</ele>
        <time>2021-03-13T08:46:03Z</time>
      </trkpt>
      <trkpt lat="44.39157" lon="7.1487">
        <ele>2010.082</ele>
        <time>2021-03-13T08:46:10Z</time>
      </trkpt>
      <trkpt lat="44.39163" lon="7.14865">
        <ele>2008.794</ele>
        <time>2021-03-13T08:46:18Z</time>
      </trkpt>
      <trkpt lat="44.39169" lon="7.1486">
        <ele>2008.951</ele>
        <time>2021-03-13T08:46:27Z</time>
      </trkpt>
      <trkpt lat="44.39175" lon="7.14856">
        <ele>2008.356</ele>
        <time>2021-03-13T08:46:35Z</time>
      </trkpt>
      <trkpt lat="44.39182" lon="7.14855">
        <ele>2011.188</ele>
        <time>2021-03-13T08:46:42Z</time>
      </trkpt>
      <trkpt lat="44.39188" lon="7.14858">
        <ele>2012.625</ele>
        <time>2021-03-13T08:46:50Z</time>
      </trkpt>
      <trkpt lat="44.39187" lon="7.14868">
        <ele>2017.898</ele>
        <time>2021-03-13T08:46:59Z</time>
      </trkpt>
      <trkpt lat="44.39194" lon="7.14869">
        <ele>2018.882</ele>
        <time>2021-03-13T08:47:09Z</time>
      </trkpt>
      <trkpt lat="44.39201" lon="7.14867">
        <ele>2016.874</ele>
        <time>2021-03-13T08:47:16Z</time>
      </trkpt>
      <trkpt lat="44.39207" lon="7.14869">
        <ele>2016.599</ele>
        <time>2021-03-13T08:47:23Z</time>
      </trkpt>
      <trkpt lat="44.39215" lon="7.14869">
        <ele>2016.059</ele>
        <time>2021-03-13T08:47:30Z</time>
      </trkpt>
      <trkpt lat="44.39221" lon="7.14869">
        <ele>2016.676</ele>
        <time>2021-03-13T08:47:37Z</time>
      </trkpt>
      <trkpt lat="44.39228" lon="7.1487">
        <ele>2016.712</ele>
        <time>2021-03-13T08:47:44Z</time>
      </trkpt>
      <trkpt lat="44.39234" lon="7.14873">
        <ele>2018.512</ele>
        <time>2021-03-13T08:47:52Z</time>
      </trkpt>
      <trkpt lat="44.39241" lon="7.14876">
        <ele>2020.663</ele>
        <time>2021-03-13T08:48:00Z</time>
      </trkpt>
      <trkpt lat="44.39247" lon="7.14872">
        <ele>2017.814</ele>
        <time>2021-03-13T08:48:07Z</time>
      </trkpt>
      <trkpt lat="44.39253" lon="7.14866">
        <ele>2016.19</ele>
        <time>2021-03-13T08:48:14Z</time>
      </trkpt>
      <trkpt lat="44.39259" lon="7.14861">
        <ele>2015.141</ele>
        <time>2021-03-13T08:48:22Z</time>
      </trkpt>
      <trkpt lat="44.39265" lon="7.14857">
        <ele>2011.698</ele>
        <time>2021-03-13T08:48:29Z</time>
      </trkpt>
      <trkpt lat="44.39271" lon="7.14851">
        <ele>2009.279</ele>
        <time>2021-03-13T08:48:37Z</time>
      </trkpt>
      <trkpt lat="44.39278" lon="7.14848">
        <ele>2010.657</ele>
        <time>2021-03-13T08:48:43Z</time>
      </trkpt>
      <trkpt lat="44.39284" lon="7.1484">
        <ele>2013.698</ele>
        <time>2021-03-13T08:48:48Z</time>
      </trkpt>
      <trkpt lat="44.3929" lon="7.14832">
        <ele>2015.141</ele>
        <time>2021-03-13T08:48:53Z</time>
      </trkpt>
      <trkpt lat="44.39296" lon="7.14825">
        <ele>2018.969</ele>
        <time>2021-03-13T08:48:58Z</time>
      </trkpt>
      <trkpt lat="44.393" lon="7.14817">
        <ele>2016.149</ele>
        <time>2021-03-13T08:49:07Z</time>
      </trkpt>
      <trkpt lat="44.39304" lon="7.1481">
        <ele>2016.919</ele>
        <time>2021-03-13T08:49:14Z</time>
      </trkpt>
      <trkpt lat="44.39308" lon="7.14802">
        <ele>2016.542</ele>
        <time>2021-03-13T08:49:21Z</time>
      </trkpt>
      <trkpt lat="44.39312" lon="7.14794">
        <ele>2017.081</ele>
        <time>2021-03-13T08:49:30Z</time>
      </trkpt>
      <trkpt lat="44.39317" lon="7.14786">
        <ele>2016.682</ele>
        <time>2021-03-13T08:49:39Z</time>
      </trkpt>
      <trkpt lat="44.39322" lon="7.1478">
        <ele>2016.896</ele>
        <time>2021-03-13T08:49:47Z</time>
      </trkpt>
      <trkpt lat="44.39326" lon="7.14773">
        <ele>2017.425</ele>
        <time>2021-03-13T08:49:55Z</time>
      </trkpt>
      <trkpt lat="44.3933" lon="7.14765">
        <ele>2017.405</ele>
        <time>2021-03-13T08:50:04Z</time>
      </trkpt>
      <trkpt lat="44.39335" lon="7.14757">
        <ele>2018.259</ele>
        <time>2021-03-13T08:50:13Z</time>
      </trkpt>
      <trkpt lat="44.39339" lon="7.1475">
        <ele>2018.99</ele>
        <time>2021-03-13T08:50:21Z</time>
      </trkpt>
      <trkpt lat="44.39343" lon="7.14742">
        <ele>2018.402</ele>
        <time>2021-03-13T08:50:29Z</time>
      </trkpt>
      <trkpt lat="44.39346" lon="7.14734">
        <ele>2018.37</ele>
        <time>2021-03-13T08:50:37Z</time>
      </trkpt>
      <trkpt lat="44.39351" lon="7.14727">
        <ele>2017.947</ele>
        <time>2021-03-13T08:50:47Z</time>
      </trkpt>
      <trkpt lat="44.39356" lon="7.1472">
        <ele>2021.444</ele>
        <time>2021-03-13T08:50:57Z</time>
      </trkpt>
      <trkpt lat="44.39359" lon="7.14712">
        <ele>2024.398</ele>
        <time>2021-03-13T08:51:06Z</time>
      </trkpt>
      <trkpt lat="44.39361" lon="7.14703">
        <ele>2024.896</ele>
        <time>2021-03-13T08:51:13Z</time>
      </trkpt>
      <trkpt lat="44.39365" lon="7.14695">
        <ele>2025.985</ele>
        <time>2021-03-13T08:51:21Z</time>
      </trkpt>
      <trkpt lat="44.39368" lon="7.14686">
        <ele>2025.78</ele>
        <time>2021-03-13T08:51:29Z</time>
      </trkpt>
      <trkpt lat="44.39371" lon="7.14678">
        <ele>2027.888</ele>
        <time>2021-03-13T08:51:38Z</time>
      </trkpt>
      <trkpt lat="44.39373" lon="7.14669">
        <ele>2027.875</ele>
        <time>2021-03-13T08:51:48Z</time>
      </trkpt>
      <trkpt lat="44.39376" lon="7.14661">
        <ele>2027.822</ele>
        <time>2021-03-13T08:51:58Z</time>
      </trkpt>
      <trkpt lat="44.39382" lon="7.14655">
        <ele>2027.392</ele>
        <time>2021-03-13T08:52:08Z</time>
      </trkpt>
      <trkpt lat="44.39386" lon="7.14647">
        <ele>2027.53</ele>
        <time>2021-03-13T08:52:17Z</time>
      </trkpt>
      <trkpt lat="44.39389" lon="7.14638">
        <ele>2029.447</ele>
        <time>2021-03-13T08:52:26Z</time>
      </trkpt>
      <trkpt lat="44.39394" lon="7.14632">
        <ele>2030.886</ele>
        <time>2021-03-13T08:52:35Z</time>
      </trkpt>
      <trkpt lat="44.39399" lon="7.14626">
        <ele>2032.437</ele>
        <time>2021-03-13T08:52:47Z</time>
      </trkpt>
      <trkpt lat="44.39405" lon="7.14621">
        <ele>2032.172</ele>
        <time>2021-03-13T08:52:55Z</time>
      </trkpt>
      <trkpt lat="44.39409" lon="7.14614">
        <ele>2031.796</ele>
        <time>2021-03-13T08:53:04Z</time>
      </trkpt>
      <trkpt lat="44.39414" lon="7.14608">
        <ele>2032.601</ele>
        <time>2021-03-13T08:53:13Z</time>
      </trkpt>
      <trkpt lat="44.3942" lon="7.14601">
        <ele>2033.464</ele>
        <time>2021-03-13T08:53:22Z</time>
      </trkpt>
      <trkpt lat="44.3942" lon="7.14592">
        <ele>2034.673</ele>
        <time>2021-03-13T08:55:13Z</time>
      </trkpt>
      <trkpt lat="44.39423" lon="7.14584">
        <ele>2032.672</ele>
        <time>2021-03-13T08:55:21Z</time>
      </trkpt>
      <trkpt lat="44.39428" lon="7.14576">
        <ele>2016.017</ele>
        <time>2021-03-13T08:55:31Z</time>
      </trkpt>
      <trkpt lat="44.3943" lon="7.14567">
        <ele>2021.269</ele>
        <time>2021-03-13T08:55:38Z</time>
      </trkpt>
      <trkpt lat="44.39434" lon="7.14558">
        <ele>2033.839</ele>
        <time>2021-03-13T08:55:47Z</time>
      </trkpt>
      <trkpt lat="44.39437" lon="7.1455">
        <ele>2018.795</ele>
        <time>2021-03-13T08:55:55Z</time>
      </trkpt>
      <trkpt lat="44.39441" lon="7.14542">
        <ele>2029.798</ele>
        <time>2021-03-13T08:56:03Z</time>
      </trkpt>
      <trkpt lat="44.39444" lon="7.14534">
        <ele>2036.456</ele>
        <time>2021-03-13T08:56:11Z</time>
      </trkpt>
      <trkpt lat="44.39448" lon="7.14526">
        <ele>2034.37</ele>
        <time>2021-03-13T08:56:18Z</time>
      </trkpt>
      <trkpt lat="44.39452" lon="7.14518">
        <ele>2045.374</ele>
        <time>2021-03-13T08:56:25Z</time>
      </trkpt>
      <trkpt lat="44.39458" lon="7.14511">
        <ele>2053.738</ele>
        <time>2021-03-13T08:56:35Z</time>
      </trkpt>
      <trkpt lat="44.39463" lon="7.14506">
        <ele>2060.377</ele>
        <time>2021-03-13T08:56:42Z</time>
      </trkpt>
      <trkpt lat="44.3947" lon="7.14503">
        <ele>2061.038</ele>
        <time>2021-03-13T08:56:53Z</time>
      </trkpt>
      <trkpt lat="44.39473" lon="7.14495">
        <ele>2065.836</ele>
        <time>2021-03-13T08:56:58Z</time>
      </trkpt>
      <trkpt lat="44.39478" lon="7.1449">
        <ele>2065.544</ele>
        <time>2021-03-13T08:57:09Z</time>
      </trkpt>
      <trkpt lat="44.39482" lon="7.14481">
        <ele>2063.035</ele>
        <time>2021-03-13T08:57:21Z</time>
      </trkpt>
      <trkpt lat="44.39485" lon="7.14473">
        <ele>2062.578</ele>
        <time>2021-03-13T08:57:32Z</time>
      </trkpt>
      <trkpt lat="44.39488" lon="7.14464">
        <ele>2059.744</ele>
        <time>2021-03-13T08:57:42Z</time>
      </trkpt>
      <trkpt lat="44.39491" lon="7.14455">
        <ele>2058.254</ele>
        <time>2021-03-13T08:57:52Z</time>
      </trkpt>
      <trkpt lat="44.39493" lon="7.14447">
        <ele>2055.693</ele>
        <time>2021-03-13T08:58:00Z</time>
      </trkpt>
      <trkpt lat="44.39496" lon="7.14438">
        <ele>2054.717</ele>
        <time>2021-03-13T08:58:08Z</time>
      </trkpt>
      <trkpt lat="44.39498" lon="7.14428">
        <ele>2053.235</ele>
        <time>2021-03-13T08:58:16Z</time>
      </trkpt>
      <trkpt lat="44.39501" lon="7.14419">
        <ele>2053.332</ele>
        <time>2021-03-13T08:58:23Z</time>
      </trkpt>
      <trkpt lat="44.39504" lon="7.1441">
        <ele>2052.824</ele>
        <time>2021-03-13T08:58:31Z</time>
      </trkpt>
      <trkpt lat="44.39507" lon="7.14402">
        <ele>2052.375</ele>
        <time>2021-03-13T08:58:40Z</time>
      </trkpt>
      <trkpt lat="44.39509" lon="7.14393">
        <ele>2052.778</ele>
        <time>2021-03-13T08:58:49Z</time>
      </trkpt>
      <trkpt lat="44.3951" lon="7.14383">
        <ele>2052.266</ele>
        <time>2021-03-13T08:58:58Z</time>
      </trkpt>
      <trkpt lat="44.39512" lon="7.14374">
        <ele>2053.145</ele>
        <time>2021-03-13T08:59:08Z</time>
      </trkpt>
      <trkpt lat="44.39514" lon="7.14365">
        <ele>2052.686</ele>
        <time>2021-03-13T08:59:17Z</time>
      </trkpt>
      <trkpt lat="44.39515" lon="7.14356">
        <ele>2052.32</ele>
        <time>2021-03-13T08:59:25Z</time>
      </trkpt>
      <trkpt lat="44.39516" lon="7.14347">
        <ele>2053.111</ele>
        <time>2021-03-13T08:59:32Z</time>
      </trkpt>
      <trkpt lat="44.39516" lon="7.14337">
        <ele>2053.41</ele>
        <time>2021-03-13T08:59:41Z</time>
      </trkpt>
      <trkpt lat="44.39516" lon="7.14328">
        <ele>2053.078</ele>
        <time>2021-03-13T08:59:50Z</time>
      </trkpt>
      <trkpt lat="44.39515" lon="7.14318">
        <ele>2053.924</ele>
        <time>2021-03-13T08:59:59Z</time>
      </trkpt>
      <trkpt lat="44.39514" lon="7.14309">
        <ele>2032.573</ele>
        <time>2021-03-13T09:01:26Z</time>
      </trkpt>
      <trkpt lat="44.3951" lon="7.14302">
        <ele>1941.764</ele>
        <time>2021-03-13T09:02:38Z</time>
      </trkpt>
      <trkpt lat="44.39513" lon="7.1431">
        <ele>2002.448</ele>
        <time>2021-03-13T09:02:51Z</time>
      </trkpt>
      <trkpt lat="44.39513" lon="7.14301">
        <ele>1972.896</ele>
        <time>2021-03-13T09:03:33Z</time>
      </trkpt>
      <trkpt lat="44.39512" lon="7.14291">
        <ele>2043.211</ele>
        <time>2021-03-13T09:03:41Z</time>
      </trkpt>
      <trkpt lat="44.39513" lon="7.14282">
        <ele>2053.285</ele>
        <time>2021-03-13T09:03:51Z</time>
      </trkpt>
      <trkpt lat="44.39516" lon="7.14273">
        <ele>2055.433</ele>
        <time>2021-03-13T09:04:07Z</time>
      </trkpt>
      <trkpt lat="44.39514" lon="7.14263">
        <ele>2056.7</ele>
        <time>2021-03-13T09:04:16Z</time>
      </trkpt>
      <trkpt lat="44.39514" lon="7.14253">
        <ele>2056.683</ele>
        <time>2021-03-13T09:04:25Z</time>
      </trkpt>
      <trkpt lat="44.39515" lon="7.14243">
        <ele>2056.553</ele>
        <time>2021-03-13T09:04:33Z</time>
      </trkpt>
      <trkpt lat="44.39514" lon="7.14233">
        <ele>2056.109</ele>
        <time>2021-03-13T09:04:41Z</time>
      </trkpt>
      <trkpt lat="44.39513" lon="7.14224">
        <ele>2056.958</ele>
        <time>2021-03-13T09:04:49Z</time>
      </trkpt>
      <trkpt lat="44.39513" lon="7.14214">
        <ele>2061.303</ele>
        <time>2021-03-13T09:04:57Z</time>
      </trkpt>
      <trkpt lat="44.39513" lon="7.14205">
        <ele>2063.526</ele>
        <time>2021-03-13T09:05:06Z</time>
      </trkpt>
      <trkpt lat="44.39513" lon="7.14195">
        <ele>2066.113</ele>
        <time>2021-03-13T09:05:15Z</time>
      </trkpt>
      <trkpt lat="44.39511" lon="7.14186">
        <ele>2067.718</ele>
        <time>2021-03-13T09:05:25Z</time>
      </trkpt>
      <trkpt lat="44.39506" lon="7.1418">
        <ele>2068.401</ele>
        <time>2021-03-13T09:05:34Z</time>
      </trkpt>
      <trkpt lat="44.39504" lon="7.14171">
        <ele>2069.161</ele>
        <time>2021-03-13T09:05:43Z</time>
      </trkpt>
      <trkpt lat="44.39502" lon="7.14162">
        <ele>2071.065</ele>
        <time>2021-03-13T09:05:53Z</time>
      </trkpt>
      <trkpt lat="44.39498" lon="7.14153">
        <ele>2003.928</ele>
        <time>2021-03-13T09:06:02Z</time>
      </trkpt>
      <trkpt lat="44.39495" lon="7.14145">
        <ele>2064.958</ele>
        <time>2021-03-13T09:06:12Z</time>
      </trkpt>
      <trkpt lat="44.39491" lon="7.14138">
        <ele>2070.525</ele>
        <time>2021-03-13T09:06:22Z</time>
      </trkpt>
      <trkpt lat="44.3949" lon="7.14128">
        <ele>2075.618</ele>
        <time>2021-03-13T09:06:34Z</time>
      </trkpt>
      <trkpt lat="44.3949" lon="7.14118">
        <ele>2074.844</ele>
        <time>2021-03-13T09:06:44Z</time>
      </trkpt>
      <trkpt lat="44.39488" lon="7.14109">
        <ele>2075.879</ele>
        <time>2021-03-13T09:06:54Z</time>
      </trkpt>
      <trkpt lat="44.39484" lon="7.14101">
        <ele>2076.963</ele>
        <time>2021-03-13T09:07:04Z</time>
      </trkpt>
      <trkpt lat="44.39483" lon="7.14092">
        <ele>2071.748</ele>
        <time>2021-03-13T09:07:15Z</time>
      </trkpt>
      <trkpt lat="44.39482" lon="7.14082">
        <ele>2077.146</ele>
        <time>2021-03-13T09:07:26Z</time>
      </trkpt>
      <trkpt lat="44.39478" lon="7.14074">
        <ele>2078.835</ele>
        <time>2021-03-13T09:07:35Z</time>
      </trkpt>
      <trkpt lat="44.39475" lon="7.14065">
        <ele>2081.762</ele>
        <time>2021-03-13T09:07:45Z</time>
      </trkpt>
      <trkpt lat="44.39473" lon="7.14057">
        <ele>2078.651</ele>
        <time>2021-03-13T09:07:56Z</time>
      </trkpt>
      <trkpt lat="44.3947" lon="7.14048">
        <ele>2087.493</ele>
        <time>2021-03-13T09:08:07Z</time>
      </trkpt>
      <trkpt lat="44.39469" lon="7.14039">
        <ele>2091.746</ele>
        <time>2021-03-13T09:08:18Z</time>
      </trkpt>
      <trkpt lat="44.39465" lon="7.14031">
        <ele>2057.984</ele>
        <time>2021-03-13T09:08:27Z</time>
      </trkpt>
      <trkpt lat="44.39462" lon="7.14022">
        <ele>2057.672</ele>
        <time>2021-03-13T09:08:37Z</time>
      </trkpt>
      <trkpt lat="44.39457" lon="7.14015">
        <ele>2054.459</ele>
        <time>2021-03-13T09:08:47Z</time>
      </trkpt>
      <trkpt lat="44.39452" lon="7.1401">
        <ele>2052.274</ele>
        <time>2021-03-13T09:08:56Z</time>
      </trkpt>
      <trkpt lat="44.39446" lon="7.14003">
        <ele>2059.442</ele>
        <time>2021-03-13T09:09:07Z</time>
      </trkpt>
      <trkpt lat="44.39441" lon="7.13998">
        <ele>2090.361</ele>
        <time>2021-03-13T09:09:13Z</time>
      </trkpt>
      <trkpt lat="44.39435" lon="7.13992">
        <ele>2096.635</ele>
        <time>2021-03-13T09:09:21Z</time>
      </trkpt>
      <trkpt lat="44.39429" lon="7.13989">
        <ele>2098.741</ele>
        <time>2021-03-13T09:09:29Z</time>
      </trkpt>
      <trkpt lat="44.39423" lon="7.13984">
        <ele>2085.922</ele>
        <time>2021-03-13T09:09:41Z</time>
      </trkpt>
      <trkpt lat="44.39417" lon="7.1398">
        <ele>2092.15</ele>
        <time>2021-03-13T09:09:48Z</time>
      </trkpt>
      <trkpt lat="44.3941" lon="7.13984">
        <ele>2055.212</ele>
        <time>2021-03-13T09:10:08Z</time>
      </trkpt>
      <trkpt lat="44.3941" lon="7.13993">
        <ele>2090.777</ele>
        <time>2021-03-13T09:11:04Z</time>
      </trkpt>
      <trkpt lat="44.39404" lon="7.13991">
        <ele>2091.597</ele>
        <time>2021-03-13T09:11:14Z</time>
      </trkpt>
      <trkpt lat="44.39398" lon="7.13986">
        <ele>2091.246</ele>
        <time>2021-03-13T09:11:24Z</time>
      </trkpt>
      <trkpt lat="44.39393" lon="7.1398">
        <ele>2092.994</ele>
        <time>2021-03-13T09:11:34Z</time>
      </trkpt>
      <trkpt lat="44.39386" lon="7.13976">
        <ele>2093.832</ele>
        <time>2021-03-13T09:11:43Z</time>
      </trkpt>
      <trkpt lat="44.39386" lon="7.13985">
        <ele>2096.707</ele>
        <time>2021-03-13T09:11:59Z</time>
      </trkpt>
      <trkpt lat="44.39383" lon="7.13994">
        <ele>2088.827</ele>
        <time>2021-03-13T09:12:11Z</time>
      </trkpt>
      <trkpt lat="44.39376" lon="7.13996">
        <ele>2094.762</ele>
        <time>2021-03-13T09:12:25Z</time>
      </trkpt>
      <trkpt lat="44.39372" lon="7.1399">
        <ele>2092.343</ele>
        <time>2021-03-13T09:12:43Z</time>
      </trkpt>
      <trkpt lat="44.39366" lon="7.13994">
        <ele>2013.412</ele>
        <time>2021-03-13T09:12:54Z</time>
      </trkpt>
      <trkpt lat="44.39363" lon="7.14001">
        <ele>2092.617</ele>
        <time>2021-03-13T09:13:05Z</time>
      </trkpt>
      <trkpt lat="44.39357" lon="7.13998">
        <ele>2103.831</ele>
        <time>2021-03-13T09:13:17Z</time>
      </trkpt>
      <trkpt lat="44.39351" lon="7.13993">
        <ele>2105.884</ele>
        <time>2021-03-13T09:13:29Z</time>
      </trkpt>
      <trkpt lat="44.39347" lon="7.14">
        <ele>2072.681</ele>
        <time>2021-03-13T09:13:42Z</time>
      </trkpt>
      <trkpt lat="44.39343" lon="7.13993">
        <ele>2115.646</ele>
        <time>2021-03-13T09:13:56Z</time>
      </trkpt>
      <trkpt lat="44.39336" lon="7.13995">
        <ele>2119.443</ele>
        <time>2021-03-13T09:14:16Z</time>
      </trkpt>
      <trkpt lat="44.39333" lon="7.14003">
        <ele>2125.168</ele>
        <time>2021-03-13T09:14:29Z</time>
      </trkpt>
      <trkpt lat="44.39328" lon="7.1401">
        <ele>2124.669</ele>
        <time>2021-03-13T09:14:41Z</time>
      </trkpt>
      <trkpt lat="44.39324" lon="7.14017">
        <ele>2110.737</ele>
        <time>2021-03-13T09:14:53Z</time>
      </trkpt>
      <trkpt lat="44.39319" lon="7.14023">
        <ele>2108.599</ele>
        <time>2021-03-13T09:15:08Z</time>
      </trkpt>
      <trkpt lat="44.39315" lon="7.14015">
        <ele>2112.217</ele>
        <time>2021-03-13T09:15:19Z</time>
      </trkpt>
      <trkpt lat="44.39312" lon="7.14007">
        <ele>2126.015</ele>
        <time>2021-03-13T09:15:29Z</time>
      </trkpt>
      <trkpt lat="44.39314" lon="7.13998">
        <ele>2138.007</ele>
        <time>2021-03-13T09:15:48Z</time>
      </trkpt>
      <trkpt lat="44.3931" lon="7.13991">
        <ele>2112.443</ele>
        <time>2021-03-13T09:16:29Z</time>
      </trkpt>
      <trkpt lat="44.39307" lon="7.14">
        <ele>2099.044</ele>
        <time>2021-03-13T09:16:43Z</time>
      </trkpt>
      <trkpt lat="44.39303" lon="7.14008">
        <ele>2124.363</ele>
        <time>2021-03-13T09:16:55Z</time>
      </trkpt>
      <trkpt lat="44.393" lon="7.14016">
        <ele>2123.093</ele>
        <time>2021-03-13T09:17:05Z</time>
      </trkpt>
      <trkpt lat="44.39298" lon="7.14025">
        <ele>2136.022</ele>
        <time>2021-03-13T09:17:15Z</time>
      </trkpt>
      <trkpt lat="44.39297" lon="7.14035">
        <ele>2139.987</ele>
        <time>2021-03-13T09:17:26Z</time>
      </trkpt>
      <trkpt lat="44.39294" lon="7.14043">
        <ele>2134.489</ele>
        <time>2021-03-13T09:17:37Z</time>
      </trkpt>
      <trkpt lat="44.39291" lon="7.14034">
        <ele>2151.44</ele>
        <time>2021-03-13T09:18:07Z</time>
      </trkpt>
      <trkpt lat="44.39286" lon="7.14042">
        <ele>2167.465</ele>
        <time>2021-03-13T09:18:53Z</time>
      </trkpt>
      <trkpt lat="44.39282" lon="7.14034">
        <ele>2170.908</ele>
        <time>2021-03-13T09:21:17Z</time>
      </trkpt>
      <trkpt lat="44.39281" lon="7.14043">
        <ele>2154.161</ele>
        <time>2021-03-13T09:21:39Z</time>
      </trkpt>
      <trkpt lat="44.39277" lon="7.14035">
        <ele>2121.929</ele>
        <time>2021-03-13T09:22:54Z</time>
      </trkpt>
      <trkpt lat="44.39274" lon="7.14028">
        <ele>2158.083</ele>
        <time>2021-03-13T09:23:04Z</time>
      </trkpt>
      <trkpt lat="44.3927" lon="7.14019">
        <ele>2180.225</ele>
        <time>2021-03-13T09:23:19Z</time>
      </trkpt>
      <trkpt lat="44.39269" lon="7.1401">
        <ele>2048.435</ele>
        <time>2021-03-13T09:24:01Z</time>
      </trkpt>
      <trkpt lat="44.39266" lon="7.14002">
        <ele>2191.497</ele>
        <time>2021-03-13T09:24:22Z</time>
      </trkpt>
      <trkpt lat="44.39263" lon="7.13993">
        <ele>2201.872</ele>
        <time>2021-03-13T09:24:37Z</time>
      </trkpt>
      <trkpt lat="44.3926" lon="7.13985">
        <ele>2201.56</ele>
        <time>2021-03-13T09:24:53Z</time>
      </trkpt>
      <trkpt lat="44.39255" lon="7.13979">
        <ele>2200.922</ele>
        <time>2021-03-13T09:25:08Z</time>
      </trkpt>
      <trkpt lat="44.3925" lon="7.13974">
        <ele>2198.549</ele>
        <time>2021-03-13T09:25:21Z</time>
      </trkpt>
      <trkpt lat="44.39245" lon="7.13968">
        <ele>2200.074</ele>
        <time>2021-03-13T09:25:31Z</time>
      </trkpt>
      <trkpt lat="44.39239" lon="7.13962">
        <ele>2202.549</ele>
        <time>2021-03-13T09:25:39Z</time>
      </trkpt>
      <trkpt lat="44.39236" lon="7.13955">
        <ele>2203.63</ele>
        <time>2021-03-13T09:25:49Z</time>
      </trkpt>
      <trkpt lat="44.39232" lon="7.13947">
        <ele>2204.369</ele>
        <time>2021-03-13T09:26:56Z</time>
      </trkpt>
      <trkpt lat="44.39227" lon="7.13941">
        <ele>2204.809</ele>
        <time>2021-03-13T09:27:05Z</time>
      </trkpt>
      <trkpt lat="44.39221" lon="7.13936">
        <ele>2206.578</ele>
        <time>2021-03-13T09:27:14Z</time>
      </trkpt>
      <trkpt lat="44.39215" lon="7.13933">
        <ele>2206.361</ele>
        <time>2021-03-13T09:27:23Z</time>
      </trkpt>
      <trkpt lat="44.39209" lon="7.13928">
        <ele>2207.654</ele>
        <time>2021-03-13T09:27:31Z</time>
      </trkpt>
      <trkpt lat="44.39204" lon="7.13922">
        <ele>2208.681</ele>
        <time>2021-03-13T09:27:39Z</time>
      </trkpt>
      <trkpt lat="44.39197" lon="7.13919">
        <ele>2211.668</ele>
        <time>2021-03-13T09:27:49Z</time>
      </trkpt>
      <trkpt lat="44.39191" lon="7.13914">
        <ele>2212.128</ele>
        <time>2021-03-13T09:27:58Z</time>
      </trkpt>
      <trkpt lat="44.39186" lon="7.13908">
        <ele>2211.656</ele>
        <time>2021-03-13T09:28:08Z</time>
      </trkpt>
      <trkpt lat="44.3918" lon="7.13904">
        <ele>2215.286</ele>
        <time>2021-03-13T09:28:17Z</time>
      </trkpt>
      <trkpt lat="44.39176" lon="7.13896">
        <ele>2218.875</ele>
        <time>2021-03-13T09:28:33Z</time>
      </trkpt>
      <trkpt lat="44.39172" lon="7.13889">
        <ele>2219.655</ele>
        <time>2021-03-13T09:28:42Z</time>
      </trkpt>
      <trkpt lat="44.39168" lon="7.13881">
        <ele>2221.209</ele>
        <time>2021-03-13T09:28:51Z</time>
      </trkpt>
      <trkpt lat="44.39162" lon="7.13877">
        <ele>2222.857</ele>
        <time>2021-03-13T09:29:01Z</time>
      </trkpt>
      <trkpt lat="44.39157" lon="7.13871">
        <ele>2226.465</ele>
        <time>2021-03-13T09:29:12Z</time>
      </trkpt>
      <trkpt lat="44.39153" lon="7.13863">
        <ele>2226.635</ele>
        <time>2021-03-13T09:29:22Z</time>
      </trkpt>
      <trkpt lat="44.39149" lon="7.13856">
        <ele>2226.42</ele>
        <time>2021-03-13T09:29:31Z</time>
      </trkpt>
      <trkpt lat="44.39145" lon="7.13849">
        <ele>2225.233</ele>
        <time>2021-03-13T09:29:42Z</time>
      </trkpt>
      <trkpt lat="44.39142" lon="7.1384">
        <ele>2226.55</ele>
        <time>2021-03-13T09:29:51Z</time>
      </trkpt>
      <trkpt lat="44.39137" lon="7.13833">
        <ele>2226.943</ele>
        <time>2021-03-13T09:30:01Z</time>
      </trkpt>
      <trkpt lat="44.39133" lon="7.13825">
        <ele>2230.372</ele>
        <time>2021-03-13T09:30:12Z</time>
      </trkpt>
      <trkpt lat="44.39129" lon="7.13817">
        <ele>2230.449</ele>
        <time>2021-03-13T09:30:22Z</time>
      </trkpt>
      <trkpt lat="44.39126" lon="7.13808">
        <ele>2232.077</ele>
        <time>2021-03-13T09:30:32Z</time>
      </trkpt>
      <trkpt lat="44.39122" lon="7.13799">
        <ele>2235.706</ele>
        <time>2021-03-13T09:30:41Z</time>
      </trkpt>
      <trkpt lat="44.39119" lon="7.13792">
        <ele>2237.72</ele>
        <time>2021-03-13T09:30:49Z</time>
      </trkpt>
      <trkpt lat="44.39115" lon="7.13783">
        <ele>2237.969</ele>
        <time>2021-03-13T09:30:59Z</time>
      </trkpt>
      <trkpt lat="44.39111" lon="7.13775">
        <ele>2238.619</ele>
        <time>2021-03-13T09:31:09Z</time>
      </trkpt>
      <trkpt lat="44.39107" lon="7.13768">
        <ele>2239.262</ele>
        <time>2021-03-13T09:31:17Z</time>
      </trkpt>
      <trkpt lat="44.39104" lon="7.1376">
        <ele>2240.984</ele>
        <time>2021-03-13T09:31:27Z</time>
      </trkpt>
      <trkpt lat="44.39098" lon="7.13753">
        <ele>2242.637</ele>
        <time>2021-03-13T09:31:36Z</time>
      </trkpt>
      <trkpt lat="44.39094" lon="7.13746">
        <ele>2245.045</ele>
        <time>2021-03-13T09:31:44Z</time>
      </trkpt>
      <trkpt lat="44.39087" lon="7.13741">
        <ele>2247.569</ele>
        <time>2021-03-13T09:31:53Z</time>
      </trkpt>
      <trkpt lat="44.39082" lon="7.13734">
        <ele>2248.843</ele>
        <time>2021-03-13T09:32:03Z</time>
      </trkpt>
      <trkpt lat="44.39078" lon="7.13727">
        <ele>2249.32</ele>
        <time>2021-03-13T09:32:12Z</time>
      </trkpt>
      <trkpt lat="44.39074" lon="7.13719">
        <ele>2250.022</ele>
        <time>2021-03-13T09:32:22Z</time>
      </trkpt>
      <trkpt lat="44.3907" lon="7.1371">
        <ele>2250.051</ele>
        <time>2021-03-13T09:32:31Z</time>
      </trkpt>
      <trkpt lat="44.39066" lon="7.13701">
        <ele>2250.5</ele>
        <time>2021-03-13T09:32:40Z</time>
      </trkpt>
      <trkpt lat="44.39063" lon="7.13694">
        <ele>2251.814</ele>
        <time>2021-03-13T09:32:48Z</time>
      </trkpt>
      <trkpt lat="44.39059" lon="7.13685">
        <ele>2252.615</ele>
        <time>2021-03-13T09:32:56Z</time>
      </trkpt>
      <trkpt lat="44.39056" lon="7.13677">
        <ele>2254.028</ele>
        <time>2021-03-13T09:33:04Z</time>
      </trkpt>
      <trkpt lat="44.39054" lon="7.13668">
        <ele>2256.47</ele>
        <time>2021-03-13T09:33:12Z</time>
      </trkpt>
      <trkpt lat="44.39053" lon="7.13658">
        <ele>2258.556</ele>
        <time>2021-03-13T09:33:21Z</time>
      </trkpt>
      <trkpt lat="44.39053" lon="7.13648">
        <ele>2260.034</ele>
        <time>2021-03-13T09:33:31Z</time>
      </trkpt>
      <trkpt lat="44.3905" lon="7.13639">
        <ele>2261.838</ele>
        <time>2021-03-13T09:33:41Z</time>
      </trkpt>
      <trkpt lat="44.3905" lon="7.13628">
        <ele>2264.831</ele>
        <time>2021-03-13T09:33:50Z</time>
      </trkpt>
      <trkpt lat="44.39053" lon="7.1362">
        <ele>2270.241</ele>
        <time>2021-03-13T09:33:59Z</time>
      </trkpt>
      <trkpt lat="44.39055" lon="7.1361">
        <ele>2272.838</ele>
        <time>2021-03-13T09:34:08Z</time>
      </trkpt>
      <trkpt lat="44.39054" lon="7.136">
        <ele>2274.715</ele>
        <time>2021-03-13T09:34:18Z</time>
      </trkpt>
      <trkpt lat="44.39054" lon="7.1359">
        <ele>2276.381</ele>
        <time>2021-03-13T09:34:26Z</time>
      </trkpt>
      <trkpt lat="44.39053" lon="7.13581">
        <ele>2278.102</ele>
        <time>2021-03-13T09:34:36Z</time>
      </trkpt>
      <trkpt lat="44.39051" lon="7.13572">
        <ele>2278.813</ele>
        <time>2021-03-13T09:34:47Z</time>
      </trkpt>
      <trkpt lat="44.39049" lon="7.13563">
        <ele>2282.822</ele>
        <time>2021-03-13T09:34:55Z</time>
      </trkpt>
      <trkpt lat="44.39042" lon="7.13559">
        <ele>2284.084</ele>
        <time>2021-03-13T09:35:06Z</time>
      </trkpt>
      <trkpt lat="44.39037" lon="7.13553">
        <ele>2285.308</ele>
        <time>2021-03-13T09:35:14Z</time>
      </trkpt>
      <trkpt lat="44.39033" lon="7.13545">
        <ele>2286.963</ele>
        <time>2021-03-13T09:35:25Z</time>
      </trkpt>
      <trkpt lat="44.39033" lon="7.13535">
        <ele>2287.646</ele>
        <time>2021-03-13T09:35:35Z</time>
      </trkpt>
      <trkpt lat="44.39033" lon="7.13526">
        <ele>2289.765</ele>
        <time>2021-03-13T09:35:45Z</time>
      </trkpt>
      <trkpt lat="44.39038" lon="7.13519">
        <ele>2288.379</ele>
        <time>2021-03-13T09:35:55Z</time>
      </trkpt>
      <trkpt lat="44.39043" lon="7.13512">
        <ele>2291.2</ele>
        <time>2021-03-13T09:36:07Z</time>
      </trkpt>
      <trkpt lat="44.39039" lon="7.13504">
        <ele>2295.629</ele>
        <time>2021-03-13T09:36:18Z</time>
      </trkpt>
      <trkpt lat="44.39034" lon="7.13499">
        <ele>2296.973</ele>
        <time>2021-03-13T09:36:28Z</time>
      </trkpt>
      <trkpt lat="44.39027" lon="7.13497">
        <ele>2297.768</ele>
        <time>2021-03-13T09:36:38Z</time>
      </trkpt>
      <trkpt lat="44.39021" lon="7.13495">
        <ele>2298.889</ele>
        <time>2021-03-13T09:36:48Z</time>
      </trkpt>
      <trkpt lat="44.39021" lon="7.13485">
        <ele>2299.449</ele>
        <time>2021-03-13T09:36:59Z</time>
      </trkpt>
      <trkpt lat="44.39024" lon="7.13477">
        <ele>2297.183</ele>
        <time>2021-03-13T09:37:08Z</time>
      </trkpt>
      <trkpt lat="44.39027" lon="7.13469">
        <ele>2294.147</ele>
        <time>2021-03-13T09:37:18Z</time>
      </trkpt>
      <trkpt lat="44.39021" lon="7.13469">
        <ele>2296.008</ele>
        <time>2021-03-13T09:37:27Z</time>
      </trkpt>
      <trkpt lat="44.39014" lon="7.13469">
        <ele>2296.091</ele>
        <time>2021-03-13T09:37:36Z</time>
      </trkpt>
      <trkpt lat="44.39007" lon="7.1347">
        <ele>2295.674</ele>
        <time>2021-03-13T09:37:46Z</time>
      </trkpt>
      <trkpt lat="44.39001" lon="7.13476">
        <ele>2297.391</ele>
        <time>2021-03-13T09:37:54Z</time>
      </trkpt>
      <trkpt lat="44.38997" lon="7.13484">
        <ele>2302.088</ele>
        <time>2021-03-13T09:38:01Z</time>
      </trkpt>
      <trkpt lat="44.38992" lon="7.13491">
        <ele>2305.104</ele>
        <time>2021-03-13T09:38:08Z</time>
      </trkpt>
      <trkpt lat="44.38986" lon="7.13497">
        <ele>2308.448</ele>
        <time>2021-03-13T09:38:17Z</time>
      </trkpt>
      <trkpt lat="44.38982" lon="7.13503">
        <ele>2310.891</ele>
        <time>2021-03-13T09:38:25Z</time>
      </trkpt>
      <trkpt lat="44.38976" lon="7.13499">
        <ele>2312.706</ele>
        <time>2021-03-13T09:38:38Z</time>
      </trkpt>
      <trkpt lat="44.38982" lon="7.13505">
        <ele>2331.41</ele>
        <time>2021-03-13T09:42:42Z</time>
      </trkpt>
      <trkpt lat="44.38978" lon="7.13497">
        <ele>2319.263</ele>
        <time>2021-03-13T09:55:40Z</time>
      </trkpt>
      <trkpt lat="44.38972" lon="7.135">
        <ele>2318.509</ele>
        <time>2021-03-13T09:55:50Z</time>
      </trkpt>
      <trkpt lat="44.38966" lon="7.13506">
        <ele>2323.097</ele>
        <time>2021-03-13T09:56:01Z</time>
      </trkpt>
      <trkpt lat="44.3896" lon="7.13511">
        <ele>2325.71</ele>
        <time>2021-03-13T09:56:13Z</time>
      </trkpt>
      <trkpt lat="44.38954" lon="7.13515">
        <ele>2329.266</ele>
        <time>2021-03-13T09:56:24Z</time>
      </trkpt>
      <trkpt lat="44.38948" lon="7.13518">
        <ele>2331.441</ele>
        <time>2021-03-13T09:56:35Z</time>
      </trkpt>
      <trkpt lat="44.38942" lon="7.1352">
        <ele>2330.109</ele>
        <time>2021-03-13T09:56:45Z</time>
      </trkpt>
      <trkpt lat="44.38935" lon="7.13525">
        <ele>2334.089</ele>
        <time>2021-03-13T09:56:56Z</time>
      </trkpt>
      <trkpt lat="44.3893" lon="7.1353">
        <ele>2335.209</ele>
        <time>2021-03-13T09:57:06Z</time>
      </trkpt>
      <trkpt lat="44.38925" lon="7.13524">
        <ele>2334.263</ele>
        <time>2021-03-13T09:57:30Z</time>
      </trkpt>
      <trkpt lat="44.38919" lon="7.1352">
        <ele>2339.113</ele>
        <time>2021-03-13T09:57:44Z</time>
      </trkpt>
      <trkpt lat="44.38916" lon="7.13512">
        <ele>2343.166</ele>
        <time>2021-03-13T09:58:05Z</time>
      </trkpt>
      <trkpt lat="44.38911" lon="7.13505">
        <ele>2349.074</ele>
        <time>2021-03-13T09:58:18Z</time>
      </trkpt>
      <trkpt lat="44.38906" lon="7.13499">
        <ele>2351.304</ele>
        <time>2021-03-13T09:58:30Z</time>
      </trkpt>
      <trkpt lat="44.38899" lon="7.13497">
        <ele>2353.028</ele>
        <time>2021-03-13T09:58:55Z</time>
      </trkpt>
      <trkpt lat="44.38893" lon="7.13498">
        <ele>2355.621</ele>
        <time>2021-03-13T09:59:07Z</time>
      </trkpt>
      <trkpt lat="44.38886" lon="7.135">
        <ele>2359.426</ele>
        <time>2021-03-13T09:59:17Z</time>
      </trkpt>
      <trkpt lat="44.3888" lon="7.13504">
        <ele>2360.324</ele>
        <time>2021-03-13T10:01:04Z</time>
      </trkpt>
      <trkpt lat="44.38873" lon="7.13502">
        <ele>2361.261</ele>
        <time>2021-03-13T10:01:12Z</time>
      </trkpt>
      <trkpt lat="44.38866" lon="7.13499">
        <ele>2363.106</ele>
        <time>2021-03-13T10:01:21Z</time>
      </trkpt>
      <trkpt lat="44.3886" lon="7.13497">
        <ele>2361.853</ele>
        <time>2021-03-13T10:01:31Z</time>
      </trkpt>
      <trkpt lat="44.38853" lon="7.13496">
        <ele>2361.251</ele>
        <time>2021-03-13T10:01:42Z</time>
      </trkpt>
      <trkpt lat="44.38846" lon="7.13494">
        <ele>2361.482</ele>
        <time>2021-03-13T10:01:59Z</time>
      </trkpt>
      <trkpt lat="44.3884" lon="7.13491">
        <ele>2362.047</ele>
        <time>2021-03-13T10:02:08Z</time>
      </trkpt>
      <trkpt lat="44.38833" lon="7.13489">
        <ele>2362.744</ele>
        <time>2021-03-13T10:02:16Z</time>
      </trkpt>
      <trkpt lat="44.38826" lon="7.13488">
        <ele>2365.457</ele>
        <time>2021-03-13T10:02:24Z</time>
      </trkpt>
      <trkpt lat="44.3882" lon="7.13486">
        <ele>2364.982</ele>
        <time>2021-03-13T10:02:32Z</time>
      </trkpt>
      <trkpt lat="44.38813" lon="7.13484">
        <ele>2363.357</ele>
        <time>2021-03-13T10:02:40Z</time>
      </trkpt>
      <trkpt lat="44.38807" lon="7.13481">
        <ele>2363.781</ele>
        <time>2021-03-13T10:02:49Z</time>
      </trkpt>
      <trkpt lat="44.388" lon="7.13479">
        <ele>2365.318</ele>
        <time>2021-03-13T10:02:56Z</time>
      </trkpt>
      <trkpt lat="44.38794" lon="7.13476">
        <ele>2367.05</ele>
        <time>2021-03-13T10:03:05Z</time>
      </trkpt>
      <trkpt lat="44.38787" lon="7.13474">
        <ele>2369.506</ele>
        <time>2021-03-13T10:03:14Z</time>
      </trkpt>
      <trkpt lat="44.38781" lon="7.13469">
        <ele>2369.342</ele>
        <time>2021-03-13T10:03:24Z</time>
      </trkpt>
      <trkpt lat="44.38776" lon="7.13463">
        <ele>2370.15</ele>
        <time>2021-03-13T10:03:33Z</time>
      </trkpt>
      <trkpt lat="44.38772" lon="7.13456">
        <ele>2371.45</ele>
        <time>2021-03-13T10:03:42Z</time>
      </trkpt>
      <trkpt lat="44.38767" lon="7.13449">
        <ele>2373.44</ele>
        <time>2021-03-13T10:03:51Z</time>
      </trkpt>
      <trkpt lat="44.38763" lon="7.13442">
        <ele>2373.012</ele>
        <time>2021-03-13T10:03:59Z</time>
      </trkpt>
      <trkpt lat="44.38758" lon="7.13435">
        <ele>2373.53</ele>
        <time>2021-03-13T10:04:06Z</time>
      </trkpt>
      <trkpt lat="44.38754" lon="7.13428">
        <ele>2373.716</ele>
        <time>2021-03-13T10:04:14Z</time>
      </trkpt>
      <trkpt lat="44.38749" lon="7.13422">
        <ele>2374.954</ele>
        <time>2021-03-13T10:04:22Z</time>
      </trkpt>
      <trkpt lat="44.38743" lon="7.13417">
        <ele>2375.789</ele>
        <time>2021-03-13T10:04:30Z</time>
      </trkpt>
      <trkpt lat="44.38737" lon="7.13412">
        <ele>2377.773</ele>
        <time>2021-03-13T10:04:39Z</time>
      </trkpt>
      <trkpt lat="44.38731" lon="7.13408">
        <ele>2379.474</ele>
        <time>2021-03-13T10:04:48Z</time>
      </trkpt>
      <trkpt lat="44.38724" lon="7.13406">
        <ele>2380.526</ele>
        <time>2021-03-13T10:04:57Z</time>
      </trkpt>
      <trkpt lat="44.38717" lon="7.13404">
        <ele>2382.023</ele>
        <time>2021-03-13T10:05:07Z</time>
      </trkpt>
      <trkpt lat="44.38711" lon="7.13401">
        <ele>2384.82</ele>
        <time>2021-03-13T10:05:16Z</time>
      </trkpt>
      <trkpt lat="44.38705" lon="7.13397">
        <ele>2386.606</ele>
        <time>2021-03-13T10:05:25Z</time>
      </trkpt>
      <trkpt lat="44.38702" lon="7.13388">
        <ele>2388.985</ele>
        <time>2021-03-13T10:05:37Z</time>
      </trkpt>
      <trkpt lat="44.38702" lon="7.13379">
        <ele>2390.809</ele>
        <time>2021-03-13T10:05:48Z</time>
      </trkpt>
      <trkpt lat="44.38704" lon="7.1337">
        <ele>2392.266</ele>
        <time>2021-03-13T10:06:03Z</time>
      </trkpt>
      <trkpt lat="44.38706" lon="7.13361">
        <ele>2393.548</ele>
        <time>2021-03-13T10:06:14Z</time>
      </trkpt>
      <trkpt lat="44.38706" lon="7.13351">
        <ele>2394.314</ele>
        <time>2021-03-13T10:06:24Z</time>
      </trkpt>
      <trkpt lat="44.38705" lon="7.13342">
        <ele>2396.636</ele>
        <time>2021-03-13T10:06:37Z</time>
      </trkpt>
      <trkpt lat="44.387" lon="7.13334">
        <ele>2397.992</ele>
        <time>2021-03-13T10:06:48Z</time>
      </trkpt>
      <trkpt lat="44.38696" lon="7.13328">
        <ele>2400.291</ele>
        <time>2021-03-13T10:06:58Z</time>
      </trkpt>
      <trkpt lat="44.3869" lon="7.13323">
        <ele>2402.26</ele>
        <time>2021-03-13T10:07:08Z</time>
      </trkpt>
      <trkpt lat="44.38685" lon="7.13318">
        <ele>2403.902</ele>
        <time>2021-03-13T10:07:17Z</time>
      </trkpt>
      <trkpt lat="44.3868" lon="7.13311">
        <ele>2405.457</ele>
        <time>2021-03-13T10:07:28Z</time>
      </trkpt>
      <trkpt lat="44.38675" lon="7.13304">
        <ele>2404.92</ele>
        <time>2021-03-13T10:07:38Z</time>
      </trkpt>
      <trkpt lat="44.38674" lon="7.13295">
        <ele>2406.324</ele>
        <time>2021-03-13T10:07:48Z</time>
      </trkpt>
      <trkpt lat="44.38672" lon="7.13285">
        <ele>2407.455</ele>
        <time>2021-03-13T10:07:57Z</time>
      </trkpt>
      <trkpt lat="44.3867" lon="7.13276">
        <ele>2407.387</ele>
        <time>2021-03-13T10:08:05Z</time>
      </trkpt>
      <trkpt lat="44.38667" lon="7.13267">
        <ele>2407.685</ele>
        <time>2021-03-13T10:08:14Z</time>
      </trkpt>
      <trkpt lat="44.38666" lon="7.13257">
        <ele>2407.7</ele>
        <time>2021-03-13T10:08:23Z</time>
      </trkpt>
      <trkpt lat="44.38664" lon="7.13248">
        <ele>2408.384</ele>
        <time>2021-03-13T10:08:32Z</time>
      </trkpt>
      <trkpt lat="44.38662" lon="7.13239">
        <ele>2410.66</ele>
        <time>2021-03-13T10:08:41Z</time>
      </trkpt>
      <trkpt lat="44.38659" lon="7.1323">
        <ele>2414.414</ele>
        <time>2021-03-13T10:08:52Z</time>
      </trkpt>
      <trkpt lat="44.38657" lon="7.13221">
        <ele>2418.19</ele>
        <time>2021-03-13T10:09:02Z</time>
      </trkpt>
      <trkpt lat="44.38657" lon="7.13211">
        <ele>2419.812</ele>
        <time>2021-03-13T10:09:15Z</time>
      </trkpt>
      <trkpt lat="44.38658" lon="7.13202">
        <ele>2420.988</ele>
        <time>2021-03-13T10:09:25Z</time>
      </trkpt>
      <trkpt lat="44.38661" lon="7.13192">
        <ele>2422.033</ele>
        <time>2021-03-13T10:09:43Z</time>
      </trkpt>
      <trkpt lat="44.38656" lon="7.13197">
        <ele>2422.221</ele>
        <time>2021-03-13T10:12:15Z</time>
      </trkpt>
      <trkpt lat="44.38649" lon="7.13196">
        <ele>2424.403</ele>
        <time>2021-03-13T10:12:26Z</time>
      </trkpt>
      <trkpt lat="44.38647" lon="7.13187">
        <ele>2427.194</ele>
        <time>2021-03-13T10:13:19Z</time>
      </trkpt>
      <trkpt lat="44.3864" lon="7.13184">
        <ele>2430.592</ele>
        <time>2021-03-13T10:13:31Z</time>
      </trkpt>
      <trkpt lat="44.38633" lon="7.13182">
        <ele>2432.207</ele>
        <time>2021-03-13T10:13:40Z</time>
      </trkpt>
      <trkpt lat="44.38627" lon="7.13178">
        <ele>2433.416</ele>
        <time>2021-03-13T10:13:49Z</time>
      </trkpt>
      <trkpt lat="44.38628" lon="7.13169">
        <ele>2435.952</ele>
        <time>2021-03-13T10:14:02Z</time>
      </trkpt>
      <trkpt lat="44.3863" lon="7.13161">
        <ele>2437.462</ele>
        <time>2021-03-13T10:14:14Z</time>
      </trkpt>
      <trkpt lat="44.38633" lon="7.13152">
        <ele>2437.516</ele>
        <time>2021-03-13T10:14:27Z</time>
      </trkpt>
      <trkpt lat="44.38634" lon="7.13143">
        <ele>2438.231</ele>
        <time>2021-03-13T10:14:39Z</time>
      </trkpt>
      <trkpt lat="44.38629" lon="7.13136">
        <ele>2442.08</ele>
        <time>2021-03-13T10:14:50Z</time>
      </trkpt>
      <trkpt lat="44.38632" lon="7.13127">
        <ele>2439.475</ele>
        <time>2021-03-13T10:15:07Z</time>
      </trkpt>
      <trkpt lat="44.38626" lon="7.13121">
        <ele>2440.513</ele>
        <time>2021-03-13T10:15:15Z</time>
      </trkpt>
      <trkpt lat="44.38619" lon="7.13122">
        <ele>2441.801</ele>
        <time>2021-03-13T10:15:25Z</time>
      </trkpt>
      <trkpt lat="44.38613" lon="7.13124">
        <ele>2445.787</ele>
        <time>2021-03-13T10:15:36Z</time>
      </trkpt>
      <trkpt lat="44.38606" lon="7.13127">
        <ele>2448.38</ele>
        <time>2021-03-13T10:15:47Z</time>
      </trkpt>
      <trkpt lat="44.38599" lon="7.13129">
        <ele>2450.356</ele>
        <time>2021-03-13T10:15:56Z</time>
      </trkpt>
      <trkpt lat="44.38593" lon="7.13125">
        <ele>2454.998</ele>
        <time>2021-03-13T10:16:11Z</time>
      </trkpt>
      <trkpt lat="44.38587" lon="7.13122">
        <ele>2456.53</ele>
        <time>2021-03-13T10:16:24Z</time>
      </trkpt>
      <trkpt lat="44.38581" lon="7.13117">
        <ele>2460.372</ele>
        <time>2021-03-13T10:16:38Z</time>
      </trkpt>
      <trkpt lat="44.38583" lon="7.13108">
        <ele>2463.433</ele>
        <time>2021-03-13T10:16:50Z</time>
      </trkpt>
      <trkpt lat="44.38585" lon="7.131">
        <ele>2465.261</ele>
        <time>2021-03-13T10:17:01Z</time>
      </trkpt>
      <trkpt lat="44.38588" lon="7.13091">
        <ele>2466.523</ele>
        <time>2021-03-13T10:17:12Z</time>
      </trkpt>
      <trkpt lat="44.38582" lon="7.13086">
        <ele>2469.625</ele>
        <time>2021-03-13T10:17:26Z</time>
      </trkpt>
      <trkpt lat="44.38576" lon="7.13082">
        <ele>2471.935</ele>
        <time>2021-03-13T10:17:38Z</time>
      </trkpt>
      <trkpt lat="44.38577" lon="7.13073">
        <ele>2472.81</ele>
        <time>2021-03-13T10:17:49Z</time>
      </trkpt>
      <trkpt lat="44.38579" lon="7.13063">
        <ele>2473.754</ele>
        <time>2021-03-13T10:18:01Z</time>
      </trkpt>
      <trkpt lat="44.38581" lon="7.13054">
        <ele>2475.709</ele>
        <time>2021-03-13T10:18:13Z</time>
      </trkpt>
      <trkpt lat="44.38583" lon="7.13045">
        <ele>2476.58</ele>
        <time>2021-03-13T10:18:25Z</time>
      </trkpt>
      <trkpt lat="44.38583" lon="7.13036">
        <ele>2478.805</ele>
        <time>2021-03-13T10:18:36Z</time>
      </trkpt>
      <trkpt lat="44.38576" lon="7.13034">
        <ele>2482.954</ele>
        <time>2021-03-13T10:18:48Z</time>
      </trkpt>
      <trkpt lat="44.38569" lon="7.13033">
        <ele>2484.947</ele>
        <time>2021-03-13T10:18:59Z</time>
      </trkpt>
      <trkpt lat="44.38562" lon="7.13032">
        <ele>2488.248</ele>
        <time>2021-03-13T10:19:11Z</time>
      </trkpt>
      <trkpt lat="44.38556" lon="7.13028">
        <ele>2488.032</ele>
        <time>2021-03-13T10:19:21Z</time>
      </trkpt>
      <trkpt lat="44.38558" lon="7.1302">
        <ele>2489.143</ele>
        <time>2021-03-13T10:19:32Z</time>
      </trkpt>
      <trkpt lat="44.38559" lon="7.13011">
        <ele>2492.175</ele>
        <time>2021-03-13T10:19:44Z</time>
      </trkpt>
      <trkpt lat="44.38552" lon="7.13008">
        <ele>2495.76</ele>
        <time>2021-03-13T10:19:54Z</time>
      </trkpt>
      <trkpt lat="44.38546" lon="7.13008">
        <ele>2497.122</ele>
        <time>2021-03-13T10:20:05Z</time>
      </trkpt>
      <trkpt lat="44.38539" lon="7.13007">
        <ele>2500.64</ele>
        <time>2021-03-13T10:20:16Z</time>
      </trkpt>
      <trkpt lat="44.38532" lon="7.13005">
        <ele>2495.568</ele>
        <time>2021-03-13T10:20:26Z</time>
      </trkpt>
      <trkpt lat="44.3853" lon="7.12996">
        <ele>2497.802</ele>
        <time>2021-03-13T10:21:09Z</time>
      </trkpt>
      <trkpt lat="44.38533" lon="7.12987">
        <ele>2498.471</ele>
        <time>2021-03-13T10:21:22Z</time>
      </trkpt>
      <trkpt lat="44.38534" lon="7.12978">
        <ele>2497.606</ele>
        <time>2021-03-13T10:21:34Z</time>
      </trkpt>
      <trkpt lat="44.38534" lon="7.12967">
        <ele>2499.086</ele>
        <time>2021-03-13T10:21:44Z</time>
      </trkpt>
      <trkpt lat="44.38538" lon="7.12959">
        <ele>2499.735</ele>
        <time>2021-03-13T10:21:53Z</time>
      </trkpt>
      <trkpt lat="44.38541" lon="7.12951">
        <ele>2500.128</ele>
        <time>2021-03-13T10:22:01Z</time>
      </trkpt>
      <trkpt lat="44.38544" lon="7.12942">
        <ele>2500.72</ele>
        <time>2021-03-13T10:22:09Z</time>
      </trkpt>
      <trkpt lat="44.38547" lon="7.12934">
        <ele>2509.529</ele>
        <time>2021-03-13T10:22:44Z</time>
      </trkpt>
      <trkpt lat="44.3855" lon="7.12924">
        <ele>2509.835</ele>
        <time>2021-03-13T10:22:53Z</time>
      </trkpt>
      <trkpt lat="44.38553" lon="7.12916">
        <ele>2510.459</ele>
        <time>2021-03-13T10:23:00Z</time>
      </trkpt>
      <trkpt lat="44.38556" lon="7.12906">
        <ele>2510.98</ele>
        <time>2021-03-13T10:23:07Z</time>
      </trkpt>
      <trkpt lat="44.38561" lon="7.12898">
        <ele>2511.193</ele>
        <time>2021-03-13T10:23:15Z</time>
      </trkpt>
      <trkpt lat="44.38564" lon="7.1289">
        <ele>2511.509</ele>
        <time>2021-03-13T10:23:22Z</time>
      </trkpt>
      <trkpt lat="44.38567" lon="7.12881">
        <ele>2511.089</ele>
        <time>2021-03-13T10:23:30Z</time>
      </trkpt>
      <trkpt lat="44.38571" lon="7.12874">
        <ele>2512.856</ele>
        <time>2021-03-13T10:23:37Z</time>
      </trkpt>
      <trkpt lat="44.38576" lon="7.12865">
        <ele>2513.678</ele>
        <time>2021-03-13T10:23:44Z</time>
      </trkpt>
      <trkpt lat="44.38579" lon="7.12857">
        <ele>2514.43</ele>
        <time>2021-03-13T10:23:52Z</time>
      </trkpt>
      <trkpt lat="44.38582" lon="7.12848">
        <ele>2515.757</ele>
        <time>2021-03-13T10:24:00Z</time>
      </trkpt>
      <trkpt lat="44.38584" lon="7.12839">
        <ele>2515.969</ele>
        <time>2021-03-13T10:24:08Z</time>
      </trkpt>
      <trkpt lat="44.38587" lon="7.12831">
        <ele>2516.288</ele>
        <time>2021-03-13T10:24:16Z</time>
      </trkpt>
      <trkpt lat="44.38589" lon="7.12821">
        <ele>2518.075</ele>
        <time>2021-03-13T10:24:25Z</time>
      </trkpt>
      <trkpt lat="44.38592" lon="7.12812">
        <ele>2519.96</ele>
        <time>2021-03-13T10:24:33Z</time>
      </trkpt>
      <trkpt lat="44.38595" lon="7.12804">
        <ele>2521.274</ele>
        <time>2021-03-13T10:24:41Z</time>
      </trkpt>
      <trkpt lat="44.38598" lon="7.12794">
        <ele>2522.007</ele>
        <time>2021-03-13T10:24:49Z</time>
      </trkpt>
      <trkpt lat="44.38596" lon="7.12785">
        <ele>2521.612</ele>
        <time>2021-03-13T10:24:57Z</time>
      </trkpt>
      <trkpt lat="44.38594" lon="7.12776">
        <ele>2520.859</ele>
        <time>2021-03-13T10:25:05Z</time>
      </trkpt>
      <trkpt lat="44.38592" lon="7.12767">
        <ele>2521.557</ele>
        <time>2021-03-13T10:25:13Z</time>
      </trkpt>
      <trkpt lat="44.38594" lon="7.12758">
        <ele>2522.958</ele>
        <time>2021-03-13T10:25:21Z</time>
      </trkpt>
      <trkpt lat="44.38599" lon="7.1275">
        <ele>2516.597</ele>
        <time>2021-03-13T10:25:50Z</time>
      </trkpt>
      <trkpt lat="44.38596" lon="7.12759">
        <ele>2438.086</ele>
        <time>2021-03-13T10:45:42Z</time>
      </trkpt>
      <trkpt lat="44.38594" lon="7.12769">
        <ele>2519.309</ele>
        <time>2021-03-13T10:49:46Z</time>
      </trkpt>
      <trkpt lat="44.38597" lon="7.12785">
        <ele>2517.156</ele>
        <time>2021-03-13T10:49:51Z</time>
      </trkpt>
      <trkpt lat="44.386" lon="7.12804">
        <ele>2515.975</ele>
        <time>2021-03-13T10:49:56Z</time>
      </trkpt>
      <trkpt lat="44.386" lon="7.1282">
        <ele>2513.882</ele>
        <time>2021-03-13T10:50:01Z</time>
      </trkpt>
      <trkpt lat="44.38609" lon="7.12839">
        <ele>2511.426</ele>
        <time>2021-03-13T10:50:06Z</time>
      </trkpt>
      <trkpt lat="44.38607" lon="7.12849">
        <ele>2512.532</ele>
        <time>2021-03-13T10:50:12Z</time>
      </trkpt>
      <trkpt lat="44.38602" lon="7.12859">
        <ele>2511.752</ele>
        <time>2021-03-13T10:50:20Z</time>
      </trkpt>
      <trkpt lat="44.38606" lon="7.12867">
        <ele>2510.299</ele>
        <time>2021-03-13T10:50:26Z</time>
      </trkpt>
      <trkpt lat="44.38618" lon="7.12858">
        <ele>2509.83</ele>
        <time>2021-03-13T10:50:31Z</time>
      </trkpt>
      <trkpt lat="44.38636" lon="7.12848">
        <ele>2506.112</ele>
        <time>2021-03-13T10:50:36Z</time>
      </trkpt>
      <trkpt lat="44.38654" lon="7.12843">
        <ele>2504.145</ele>
        <time>2021-03-13T10:50:41Z</time>
      </trkpt>
      <trkpt lat="44.38665" lon="7.12845">
        <ele>2503.004</ele>
        <time>2021-03-13T10:50:46Z</time>
      </trkpt>
      <trkpt lat="44.3866" lon="7.12852">
        <ele>2500.137</ele>
        <time>2021-03-13T10:50:53Z</time>
      </trkpt>
      <trkpt lat="44.38666" lon="7.1286">
        <ele>2496.764</ele>
        <time>2021-03-13T10:51:00Z</time>
      </trkpt>
      <trkpt lat="44.38667" lon="7.12874">
        <ele>2502.38</ele>
        <time>2021-03-13T10:51:05Z</time>
      </trkpt>
      <trkpt lat="44.38669" lon="7.12884">
        <ele>2490.401</ele>
        <time>2021-03-13T10:51:10Z</time>
      </trkpt>
      <trkpt lat="44.38676" lon="7.12886">
        <ele>2486.032</ele>
        <time>2021-03-13T10:52:01Z</time>
      </trkpt>
      <trkpt lat="44.38678" lon="7.12897">
        <ele>2479.101</ele>
        <time>2021-03-13T10:52:09Z</time>
      </trkpt>
      <trkpt lat="44.38693" lon="7.12893">
        <ele>2476.723</ele>
        <time>2021-03-13T10:52:14Z</time>
      </trkpt>
      <trkpt lat="44.38694" lon="7.12909">
        <ele>2472.014</ele>
        <time>2021-03-13T10:52:19Z</time>
      </trkpt>
      <trkpt lat="44.38713" lon="7.12923">
        <ele>2469.529</ele>
        <time>2021-03-13T10:52:24Z</time>
      </trkpt>
      <trkpt lat="44.38731" lon="7.12927">
        <ele>2468.803</ele>
        <time>2021-03-13T10:52:29Z</time>
      </trkpt>
      <trkpt lat="44.38745" lon="7.12943">
        <ele>2466.376</ele>
        <time>2021-03-13T10:52:34Z</time>
      </trkpt>
      <trkpt lat="44.38746" lon="7.12954">
        <ele>2464.493</ele>
        <time>2021-03-13T10:52:54Z</time>
      </trkpt>
      <trkpt lat="44.38754" lon="7.1297">
        <ele>2461.272</ele>
        <time>2021-03-13T10:52:59Z</time>
      </trkpt>
      <trkpt lat="44.38758" lon="7.12985">
        <ele>2457.908</ele>
        <time>2021-03-13T10:53:04Z</time>
      </trkpt>
      <trkpt lat="44.38766" lon="7.12999">
        <ele>2453.164</ele>
        <time>2021-03-13T10:53:09Z</time>
      </trkpt>
      <trkpt lat="44.3877" lon="7.13014">
        <ele>2450.155</ele>
        <time>2021-03-13T10:53:14Z</time>
      </trkpt>
      <trkpt lat="44.38776" lon="7.13027">
        <ele>2447.414</ele>
        <time>2021-03-13T10:53:19Z</time>
      </trkpt>
      <trkpt lat="44.3877" lon="7.13033">
        <ele>2441.794</ele>
        <time>2021-03-13T10:53:35Z</time>
      </trkpt>
      <trkpt lat="44.38768" lon="7.13044">
        <ele>2439.405</ele>
        <time>2021-03-13T10:53:40Z</time>
      </trkpt>
      <trkpt lat="44.38771" lon="7.13062">
        <ele>2435.169</ele>
        <time>2021-03-13T10:53:45Z</time>
      </trkpt>
      <trkpt lat="44.38769" lon="7.13074">
        <ele>2430.314</ele>
        <time>2021-03-13T10:53:50Z</time>
      </trkpt>
      <trkpt lat="44.38776" lon="7.1309">
        <ele>2427.525</ele>
        <time>2021-03-13T10:53:55Z</time>
      </trkpt>
      <trkpt lat="44.3878" lon="7.131">
        <ele>2423.029</ele>
        <time>2021-03-13T10:54:26Z</time>
      </trkpt>
      <trkpt lat="44.38788" lon="7.1312">
        <ele>2421.343</ele>
        <time>2021-03-13T10:54:31Z</time>
      </trkpt>
      <trkpt lat="44.38795" lon="7.13141">
        <ele>2421.18</ele>
        <time>2021-03-13T10:54:36Z</time>
      </trkpt>
      <trkpt lat="44.38802" lon="7.13164">
        <ele>2423.324</ele>
        <time>2021-03-13T10:54:41Z</time>
      </trkpt>
      <trkpt lat="44.38799" lon="7.13186">
        <ele>2417.096</ele>
        <time>2021-03-13T10:54:46Z</time>
      </trkpt>
      <trkpt lat="44.38807" lon="7.13211">
        <ele>2415.929</ele>
        <time>2021-03-13T10:54:51Z</time>
      </trkpt>
      <trkpt lat="44.38807" lon="7.13234">
        <ele>2416.763</ele>
        <time>2021-03-13T10:54:56Z</time>
      </trkpt>
      <trkpt lat="44.38812" lon="7.13259">
        <ele>2412.212</ele>
        <time>2021-03-13T10:55:01Z</time>
      </trkpt>
      <trkpt lat="44.38818" lon="7.13276">
        <ele>2388.818</ele>
        <time>2021-03-13T10:55:06Z</time>
      </trkpt>
      <trkpt lat="44.38808" lon="7.13298">
        <ele>2410.201</ele>
        <time>2021-03-13T10:55:11Z</time>
      </trkpt>
      <trkpt lat="44.38818" lon="7.13317">
        <ele>2406.8</ele>
        <time>2021-03-13T10:55:16Z</time>
      </trkpt>
      <trkpt lat="44.38813" lon="7.13337">
        <ele>2403.803</ele>
        <time>2021-03-13T10:55:21Z</time>
      </trkpt>
      <trkpt lat="44.38798" lon="7.13334">
        <ele>2353.534</ele>
        <time>2021-03-13T10:55:26Z</time>
      </trkpt>
      <trkpt lat="44.38807" lon="7.1335">
        <ele>2386.814</ele>
        <time>2021-03-13T10:55:31Z</time>
      </trkpt>
      <trkpt lat="44.38808" lon="7.13362">
        <ele>2399.206</ele>
        <time>2021-03-13T10:56:04Z</time>
      </trkpt>
      <trkpt lat="44.38812" lon="7.13373">
        <ele>2397.375</ele>
        <time>2021-03-13T10:56:09Z</time>
      </trkpt>
      <trkpt lat="44.38798" lon="7.13398">
        <ele>2395.113</ele>
        <time>2021-03-13T10:56:14Z</time>
      </trkpt>
      <trkpt lat="44.38788" lon="7.13413">
        <ele>2389.256</ele>
        <time>2021-03-13T10:56:19Z</time>
      </trkpt>
      <trkpt lat="44.38784" lon="7.13442">
        <ele>2383.9</ele>
        <time>2021-03-13T10:56:24Z</time>
      </trkpt>
      <trkpt lat="44.3878" lon="7.13458">
        <ele>2383.584</ele>
        <time>2021-03-13T10:56:29Z</time>
      </trkpt>
      <trkpt lat="44.38786" lon="7.13465">
        <ele>2369.136</ele>
        <time>2021-03-13T10:57:08Z</time>
      </trkpt>
      <trkpt lat="44.38797" lon="7.13471">
        <ele>2368.459</ele>
        <time>2021-03-13T10:57:13Z</time>
      </trkpt>
      <trkpt lat="44.3881" lon="7.13475">
        <ele>2367.896</ele>
        <time>2021-03-13T10:57:18Z</time>
      </trkpt>
      <trkpt lat="44.38827" lon="7.13484">
        <ele>2365.926</ele>
        <time>2021-03-13T10:57:23Z</time>
      </trkpt>
      <trkpt lat="44.38841" lon="7.13491">
        <ele>2364.552</ele>
        <time>2021-03-13T10:57:28Z</time>
      </trkpt>
      <trkpt lat="44.38857" lon="7.13505">
        <ele>2363.974</ele>
        <time>2021-03-13T10:57:33Z</time>
      </trkpt>
      <trkpt lat="44.38869" lon="7.13516">
        <ele>2360.973</ele>
        <time>2021-03-13T10:57:38Z</time>
      </trkpt>
      <trkpt lat="44.38881" lon="7.1351">
        <ele>2358.615</ele>
        <time>2021-03-13T10:57:43Z</time>
      </trkpt>
      <trkpt lat="44.38891" lon="7.13505">
        <ele>2357.919</ele>
        <time>2021-03-13T10:57:48Z</time>
      </trkpt>
      <trkpt lat="44.38896" lon="7.13495">
        <ele>2355.628</ele>
        <time>2021-03-13T10:57:55Z</time>
      </trkpt>
      <trkpt lat="44.38914" lon="7.13486">
        <ele>2353.573</ele>
        <time>2021-03-13T10:58:00Z</time>
      </trkpt>
      <trkpt lat="44.38924" lon="7.13487">
        <ele>2353.318</ele>
        <time>2021-03-13T10:58:05Z</time>
      </trkpt>
      <trkpt lat="44.38915" lon="7.13488">
        <ele>2433.79</ele>
        <time>2021-03-13T10:58:23Z</time>
      </trkpt>
      <trkpt lat="44.38912" lon="7.13499">
        <ele>2340.364</ele>
        <time>2021-03-13T10:58:28Z</time>
      </trkpt>
      <trkpt lat="44.38911" lon="7.13509">
        <ele>2343.73</ele>
        <time>2021-03-13T10:58:33Z</time>
      </trkpt>
      <trkpt lat="44.38914" lon="7.13518">
        <ele>2345.685</ele>
        <time>2021-03-13T10:58:39Z</time>
      </trkpt>
      <trkpt lat="44.38918" lon="7.13529">
        <ele>2345.271</ele>
        <time>2021-03-13T10:58:44Z</time>
      </trkpt>
      <trkpt lat="44.38924" lon="7.13535">
        <ele>2336.768</ele>
        <time>2021-03-13T10:58:51Z</time>
      </trkpt>
      <trkpt lat="44.38928" lon="7.13528">
        <ele>2339.28</ele>
        <time>2021-03-13T10:58:59Z</time>
      </trkpt>
      <trkpt lat="44.38931" lon="7.13517">
        <ele>2337.404</ele>
        <time>2021-03-13T10:59:06Z</time>
      </trkpt>
      <trkpt lat="44.38947" lon="7.13505">
        <ele>2334.509</ele>
        <time>2021-03-13T10:59:11Z</time>
      </trkpt>
      <trkpt lat="44.38958" lon="7.13496">
        <ele>2332.366</ele>
        <time>2021-03-13T10:59:16Z</time>
      </trkpt>
      <trkpt lat="44.38967" lon="7.1348">
        <ele>2328.546</ele>
        <time>2021-03-13T10:59:21Z</time>
      </trkpt>
      <trkpt lat="44.38975" lon="7.13465">
        <ele>2323.379</ele>
        <time>2021-03-13T10:59:26Z</time>
      </trkpt>
      <trkpt lat="44.38985" lon="7.13459">
        <ele>2326.579</ele>
        <time>2021-03-13T10:59:31Z</time>
      </trkpt>
      <trkpt lat="44.38997" lon="7.1345">
        <ele>2324.49</ele>
        <time>2021-03-13T10:59:36Z</time>
      </trkpt>
      <trkpt lat="44.39003" lon="7.13447">
        <ele>2323.87</ele>
        <time>2021-03-13T10:59:48Z</time>
      </trkpt>
      <trkpt lat="44.39016" lon="7.13445">
        <ele>2322.546</ele>
        <time>2021-03-13T10:59:53Z</time>
      </trkpt>
      <trkpt lat="44.39028" lon="7.13446">
        <ele>2321.008</ele>
        <time>2021-03-13T10:59:58Z</time>
      </trkpt>
      <trkpt lat="44.39029" lon="7.13457">
        <ele>2319.481</ele>
        <time>2021-03-13T11:00:03Z</time>
      </trkpt>
      <trkpt lat="44.39046" lon="7.1346">
        <ele>2315.785</ele>
        <time>2021-03-13T11:00:08Z</time>
      </trkpt>
      <trkpt lat="44.39057" lon="7.13464">
        <ele>2314.922</ele>
        <time>2021-03-13T11:00:13Z</time>
      </trkpt>
      <trkpt lat="44.39071" lon="7.13468">
        <ele>2312.682</ele>
        <time>2021-03-13T11:00:18Z</time>
      </trkpt>
      <trkpt lat="44.39088" lon="7.13474">
        <ele>2311.162</ele>
        <time>2021-03-13T11:00:23Z</time>
      </trkpt>
      <trkpt lat="44.39096" lon="7.13481">
        <ele>2309.867</ele>
        <time>2021-03-13T11:00:28Z</time>
      </trkpt>
      <trkpt lat="44.39102" lon="7.13506">
        <ele>2307.601</ele>
        <time>2021-03-13T11:00:33Z</time>
      </trkpt>
      <trkpt lat="44.39108" lon="7.13522">
        <ele>2304.638</ele>
        <time>2021-03-13T11:00:38Z</time>
      </trkpt>
      <trkpt lat="44.39116" lon="7.1355">
        <ele>2303.283</ele>
        <time>2021-03-13T11:00:43Z</time>
      </trkpt>
      <trkpt lat="44.39114" lon="7.1356">
        <ele>2301.488</ele>
        <time>2021-03-13T11:00:48Z</time>
      </trkpt>
      <trkpt lat="44.39107" lon="7.13561">
        <ele>2283.762</ele>
        <time>2021-03-13T11:01:55Z</time>
      </trkpt>
      <trkpt lat="44.39101" lon="7.13567">
        <ele>2280.983</ele>
        <time>2021-03-13T11:03:56Z</time>
      </trkpt>
      <trkpt lat="44.39107" lon="7.13582">
        <ele>2277.676</ele>
        <time>2021-03-13T11:04:01Z</time>
      </trkpt>
      <trkpt lat="44.39116" lon="7.13593">
        <ele>2276.139</ele>
        <time>2021-03-13T11:04:06Z</time>
      </trkpt>
      <trkpt lat="44.39122" lon="7.13604">
        <ele>2270.778</ele>
        <time>2021-03-13T11:04:11Z</time>
      </trkpt>
      <trkpt lat="44.3912" lon="7.13622">
        <ele>2269.14</ele>
        <time>2021-03-13T11:04:16Z</time>
      </trkpt>
      <trkpt lat="44.39119" lon="7.13641">
        <ele>2265.802</ele>
        <time>2021-03-13T11:04:21Z</time>
      </trkpt>
      <trkpt lat="44.39124" lon="7.13653">
        <ele>2263.111</ele>
        <time>2021-03-13T11:04:26Z</time>
      </trkpt>
      <trkpt lat="44.39123" lon="7.13665">
        <ele>2259.019</ele>
        <time>2021-03-13T11:04:31Z</time>
      </trkpt>
      <trkpt lat="44.39115" lon="7.13684">
        <ele>2257.66</ele>
        <time>2021-03-13T11:04:36Z</time>
      </trkpt>
      <trkpt lat="44.39107" lon="7.13695">
        <ele>2254.825</ele>
        <time>2021-03-13T11:04:41Z</time>
      </trkpt>
      <trkpt lat="44.39115" lon="7.13701">
        <ele>2254.431</ele>
        <time>2021-03-13T11:04:57Z</time>
      </trkpt>
      <trkpt lat="44.39132" lon="7.1371">
        <ele>2253.789</ele>
        <time>2021-03-13T11:05:02Z</time>
      </trkpt>
      <trkpt lat="44.39148" lon="7.13719">
        <ele>2253.641</ele>
        <time>2021-03-13T11:05:07Z</time>
      </trkpt>
      <trkpt lat="44.39157" lon="7.13717">
        <ele>2249.195</ele>
        <time>2021-03-13T11:05:12Z</time>
      </trkpt>
      <trkpt lat="44.39172" lon="7.13735">
        <ele>2243.717</ele>
        <time>2021-03-13T11:05:17Z</time>
      </trkpt>
      <trkpt lat="44.39189" lon="7.13755">
        <ele>2242.364</ele>
        <time>2021-03-13T11:05:22Z</time>
      </trkpt>
      <trkpt lat="44.39194" lon="7.13765">
        <ele>2240.876</ele>
        <time>2021-03-13T11:05:27Z</time>
      </trkpt>
      <trkpt lat="44.39203" lon="7.13777">
        <ele>2241.909</ele>
        <time>2021-03-13T11:05:32Z</time>
      </trkpt>
      <trkpt lat="44.39212" lon="7.13787">
        <ele>2240.766</ele>
        <time>2021-03-13T11:05:37Z</time>
      </trkpt>
      <trkpt lat="44.39208" lon="7.13811">
        <ele>2235.79</ele>
        <time>2021-03-13T11:05:42Z</time>
      </trkpt>
      <trkpt lat="44.39198" lon="7.13824">
        <ele>2232.667</ele>
        <time>2021-03-13T11:05:47Z</time>
      </trkpt>
      <trkpt lat="44.39203" lon="7.13833">
        <ele>2230.759</ele>
        <time>2021-03-13T11:06:47Z</time>
      </trkpt>
      <trkpt lat="44.39211" lon="7.13841">
        <ele>2228.235</ele>
        <time>2021-03-13T11:06:52Z</time>
      </trkpt>
      <trkpt lat="44.3921" lon="7.13859">
        <ele>2224.113</ele>
        <time>2021-03-13T11:06:57Z</time>
      </trkpt>
      <trkpt lat="44.39195" lon="7.13871">
        <ele>2250.187</ele>
        <time>2021-03-13T11:07:02Z</time>
      </trkpt>
      <trkpt lat="44.3919" lon="7.13882">
        <ele>2284.148</ele>
        <time>2021-03-13T11:07:09Z</time>
      </trkpt>
      <trkpt lat="44.39198" lon="7.13899">
        <ele>2290.57</ele>
        <time>2021-03-13T11:07:14Z</time>
      </trkpt>
      <trkpt lat="44.39204" lon="7.13925">
        <ele>2297.389</ele>
        <time>2021-03-13T11:07:19Z</time>
      </trkpt>
      <trkpt lat="44.39216" lon="7.13943">
        <ele>2300.813</ele>
        <time>2021-03-13T11:07:24Z</time>
      </trkpt>
      <trkpt lat="44.39224" lon="7.13959">
        <ele>2302.252</ele>
        <time>2021-03-13T11:07:29Z</time>
      </trkpt>
      <trkpt lat="44.39233" lon="7.13973">
        <ele>2298.932</ele>
        <time>2021-03-13T11:07:34Z</time>
      </trkpt>
      <trkpt lat="44.39245" lon="7.13977">
        <ele>2296.049</ele>
        <time>2021-03-13T11:07:39Z</time>
      </trkpt>
      <trkpt lat="44.39253" lon="7.13983">
        <ele>2181.523</ele>
        <time>2021-03-13T11:07:44Z</time>
      </trkpt>
      <trkpt lat="44.3926" lon="7.13988">
        <ele>2192.364</ele>
        <time>2021-03-13T11:07:50Z</time>
      </trkpt>
      <trkpt lat="44.39262" lon="7.14001">
        <ele>2194.92</ele>
        <time>2021-03-13T11:07:55Z</time>
      </trkpt>
      <trkpt lat="44.39268" lon="7.14006">
        <ele>2185.467</ele>
        <time>2021-03-13T11:08:00Z</time>
      </trkpt>
      <trkpt lat="44.39275" lon="7.1401">
        <ele>2184.448</ele>
        <time>2021-03-13T11:08:23Z</time>
      </trkpt>
      <trkpt lat="44.39281" lon="7.14022">
        <ele>2182.334</ele>
        <time>2021-03-13T11:08:28Z</time>
      </trkpt>
      <trkpt lat="44.39287" lon="7.14024">
        <ele>2179.905</ele>
        <time>2021-03-13T11:08:33Z</time>
      </trkpt>
      <trkpt lat="44.39291" lon="7.14033">
        <ele>2175.555</ele>
        <time>2021-03-13T11:08:38Z</time>
      </trkpt>
      <trkpt lat="44.39297" lon="7.14039">
        <ele>2174.34</ele>
        <time>2021-03-13T11:08:43Z</time>
      </trkpt>
      <trkpt lat="44.39301" lon="7.14031">
        <ele>2123.193</ele>
        <time>2021-03-13T11:09:24Z</time>
      </trkpt>
      <trkpt lat="44.39306" lon="7.14019">
        <ele>2153.15</ele>
        <time>2021-03-13T11:09:32Z</time>
      </trkpt>
      <trkpt lat="44.39314" lon="7.14014">
        <ele>2041.799</ele>
        <time>2021-03-13T11:09:38Z</time>
      </trkpt>
      <trkpt lat="44.3932" lon="7.14011">
        <ele>2073.818</ele>
        <time>2021-03-13T11:09:44Z</time>
      </trkpt>
      <trkpt lat="44.39323" lon="7.14021">
        <ele>2039.924</ele>
        <time>2021-03-13T11:10:23Z</time>
      </trkpt>
      <trkpt lat="44.39327" lon="7.14028">
        <ele>2019.818</ele>
        <time>2021-03-13T11:10:28Z</time>
      </trkpt>
      <trkpt lat="44.39334" lon="7.14019">
        <ele>2101.175</ele>
        <time>2021-03-13T11:10:33Z</time>
      </trkpt>
      <trkpt lat="44.39343" lon="7.14019">
        <ele>2122.204</ele>
        <time>2021-03-13T11:10:38Z</time>
      </trkpt>
      <trkpt lat="44.39359" lon="7.14027">
        <ele>2123.819</ele>
        <time>2021-03-13T11:10:43Z</time>
      </trkpt>
      <trkpt lat="44.39369" lon="7.14022">
        <ele>2119.536</ele>
        <time>2021-03-13T11:10:48Z</time>
      </trkpt>
      <trkpt lat="44.3938" lon="7.14037">
        <ele>2120.922</ele>
        <time>2021-03-13T11:10:53Z</time>
      </trkpt>
      <trkpt lat="44.39387" lon="7.14034">
        <ele>2123.887</ele>
        <time>2021-03-13T11:11:06Z</time>
      </trkpt>
      <trkpt lat="44.39393" lon="7.14024">
        <ele>2120.429</ele>
        <time>2021-03-13T11:11:11Z</time>
      </trkpt>
      <trkpt lat="44.39396" lon="7.14014">
        <ele>2122.189</ele>
        <time>2021-03-13T11:11:38Z</time>
      </trkpt>
      <trkpt lat="44.39398" lon="7.14002">
        <ele>2394.903</ele>
        <time>2021-03-13T11:11:43Z</time>
      </trkpt>
      <trkpt lat="44.39404" lon="7.13963">
        <ele>2310.832</ele>
        <time>2021-03-13T11:11:48Z</time>
      </trkpt>
      <trkpt lat="44.39427" lon="7.13951">
        <ele>2167.899</ele>
        <time>2021-03-13T11:11:53Z</time>
      </trkpt>
      <trkpt lat="44.39436" lon="7.13958">
        <ele>2130.228</ele>
        <time>2021-03-13T11:11:58Z</time>
      </trkpt>
      <trkpt lat="44.39443" lon="7.13967">
        <ele>2113.228</ele>
        <time>2021-03-13T11:12:17Z</time>
      </trkpt>
      <trkpt lat="44.39461" lon="7.13973">
        <ele>2323.272</ele>
        <time>2021-03-13T11:12:22Z</time>
      </trkpt>
      <trkpt lat="44.39469" lon="7.13987">
        <ele>2316.658</ele>
        <time>2021-03-13T11:12:27Z</time>
      </trkpt>
      <trkpt lat="44.39472" lon="7.1401">
        <ele>2327.699</ele>
        <time>2021-03-13T11:12:32Z</time>
      </trkpt>
      <trkpt lat="44.39475" lon="7.1403">
        <ele>2363.316</ele>
        <time>2021-03-13T11:12:37Z</time>
      </trkpt>
      <trkpt lat="44.3948" lon="7.14049">
        <ele>2202.434</ele>
        <time>2021-03-13T11:12:42Z</time>
      </trkpt>
      <trkpt lat="44.39477" lon="7.14058">
        <ele>2034.354</ele>
        <time>2021-03-13T11:12:59Z</time>
      </trkpt>
      <trkpt lat="44.39484" lon="7.14071">
        <ele>2086.416</ele>
        <time>2021-03-13T11:13:04Z</time>
      </trkpt>
      <trkpt lat="44.39496" lon="7.14093">
        <ele>2082.701</ele>
        <time>2021-03-13T11:13:09Z</time>
      </trkpt>
      <trkpt lat="44.39504" lon="7.14109">
        <ele>2080.699</ele>
        <time>2021-03-13T11:13:14Z</time>
      </trkpt>
      <trkpt lat="44.39509" lon="7.14117">
        <ele>2082.46</ele>
        <time>2021-03-13T11:13:19Z</time>
      </trkpt>
      <trkpt lat="44.39514" lon="7.14122">
        <ele>2082.055</ele>
        <time>2021-03-13T11:13:26Z</time>
      </trkpt>
      <trkpt lat="44.39521" lon="7.14124">
        <ele>2081.971</ele>
        <time>2021-03-13T11:13:36Z</time>
      </trkpt>
      <trkpt lat="44.39533" lon="7.14127">
        <ele>2078.87</ele>
        <time>2021-03-13T11:13:41Z</time>
      </trkpt>
      <trkpt lat="44.39543" lon="7.14149">
        <ele>2190.087</ele>
        <time>2021-03-13T11:13:46Z</time>
      </trkpt>
      <trkpt lat="44.39543" lon="7.14162">
        <ele>2113.559</ele>
        <time>2021-03-13T11:13:51Z</time>
      </trkpt>
      <trkpt lat="44.39536" lon="7.14163">
        <ele>2093.671</ele>
        <time>2021-03-13T11:13:56Z</time>
      </trkpt>
      <trkpt lat="44.39537" lon="7.14174">
        <ele>2081.446</ele>
        <time>2021-03-13T11:14:01Z</time>
      </trkpt>
      <trkpt lat="44.39537" lon="7.14186">
        <ele>2071.302</ele>
        <time>2021-03-13T11:14:06Z</time>
      </trkpt>
      <trkpt lat="44.3954" lon="7.14194">
        <ele>2035.702</ele>
        <time>2021-03-13T11:14:11Z</time>
      </trkpt>
      <trkpt lat="44.39537" lon="7.14205">
        <ele>2020.475</ele>
        <time>2021-03-13T11:14:54Z</time>
      </trkpt>
      <trkpt lat="44.39545" lon="7.14231">
        <ele>1993.775</ele>
        <time>2021-03-13T11:14:59Z</time>
      </trkpt>
      <trkpt lat="44.39549" lon="7.14254">
        <ele>2018.55</ele>
        <time>2021-03-13T11:15:04Z</time>
      </trkpt>
      <trkpt lat="44.3954" lon="7.14275">
        <ele>2030.827</ele>
        <time>2021-03-13T11:15:09Z</time>
      </trkpt>
      <trkpt lat="44.39542" lon="7.14293">
        <ele>2028.898</ele>
        <time>2021-03-13T11:15:14Z</time>
      </trkpt>
      <trkpt lat="44.39538" lon="7.14311">
        <ele>2031.659</ele>
        <time>2021-03-13T11:15:19Z</time>
      </trkpt>
      <trkpt lat="44.39528" lon="7.1434">
        <ele>2033.5</ele>
        <time>2021-03-13T11:15:24Z</time>
      </trkpt>
      <trkpt lat="44.39525" lon="7.14355">
        <ele>2039.871</ele>
        <time>2021-03-13T11:15:29Z</time>
      </trkpt>
      <trkpt lat="44.39523" lon="7.14364">
        <ele>2044.884</ele>
        <time>2021-03-13T11:15:53Z</time>
      </trkpt>
      <trkpt lat="44.39509" lon="7.1439">
        <ele>2045.562</ele>
        <time>2021-03-13T11:15:58Z</time>
      </trkpt>
      <trkpt lat="44.39498" lon="7.14421">
        <ele>2044.404</ele>
        <time>2021-03-13T11:16:03Z</time>
      </trkpt>
      <trkpt lat="44.39489" lon="7.14441">
        <ele>2042.686</ele>
        <time>2021-03-13T11:16:08Z</time>
      </trkpt>
      <trkpt lat="44.39483" lon="7.14465">
        <ele>2042.858</ele>
        <time>2021-03-13T11:16:13Z</time>
      </trkpt>
      <trkpt lat="44.39479" lon="7.14482">
        <ele>2041.663</ele>
        <time>2021-03-13T11:16:18Z</time>
      </trkpt>
      <trkpt lat="44.39475" lon="7.1449">
        <ele>2042.699</ele>
        <time>2021-03-13T11:16:24Z</time>
      </trkpt>
      <trkpt lat="44.3947" lon="7.14497">
        <ele>2001.696</ele>
        <time>2021-03-13T11:17:03Z</time>
      </trkpt>
      <trkpt lat="44.3946" lon="7.14515">
        <ele>2016.583</ele>
        <time>2021-03-13T11:17:08Z</time>
      </trkpt>
      <trkpt lat="44.39452" lon="7.14531">
        <ele>2029.079</ele>
        <time>2021-03-13T11:17:13Z</time>
      </trkpt>
      <trkpt lat="44.39445" lon="7.14549">
        <ele>2030.595</ele>
        <time>2021-03-13T11:17:18Z</time>
      </trkpt>
      <trkpt lat="44.39436" lon="7.14565">
        <ele>2029.622</ele>
        <time>2021-03-13T11:17:23Z</time>
      </trkpt>
      <trkpt lat="44.39429" lon="7.14585">
        <ele>2029.7</ele>
        <time>2021-03-13T11:17:28Z</time>
      </trkpt>
      <trkpt lat="44.39421" lon="7.1459">
        <ele>2028.398</ele>
        <time>2021-03-13T11:17:33Z</time>
      </trkpt>
      <trkpt lat="44.39416" lon="7.14605">
        <ele>2027.689</ele>
        <time>2021-03-13T11:17:38Z</time>
      </trkpt>
      <trkpt lat="44.39403" lon="7.14619">
        <ele>2024.623</ele>
        <time>2021-03-13T11:17:43Z</time>
      </trkpt>
      <trkpt lat="44.39396" lon="7.14638">
        <ele>2024.362</ele>
        <time>2021-03-13T11:17:48Z</time>
      </trkpt>
      <trkpt lat="44.39392" lon="7.14655">
        <ele>2025.385</ele>
        <time>2021-03-13T11:17:53Z</time>
      </trkpt>
      <trkpt lat="44.39387" lon="7.14665">
        <ele>2023.365</ele>
        <time>2021-03-13T11:17:59Z</time>
      </trkpt>
      <trkpt lat="44.39373" lon="7.14688">
        <ele>2020.828</ele>
        <time>2021-03-13T11:18:04Z</time>
      </trkpt>
      <trkpt lat="44.39368" lon="7.14703">
        <ele>2019.635</ele>
        <time>2021-03-13T11:18:09Z</time>
      </trkpt>
      <trkpt lat="44.39364" lon="7.14718">
        <ele>2018.736</ele>
        <time>2021-03-13T11:18:14Z</time>
      </trkpt>
      <trkpt lat="44.39348" lon="7.14748">
        <ele>2014.588</ele>
        <time>2021-03-13T11:18:19Z</time>
      </trkpt>
      <trkpt lat="44.39323" lon="7.14786">
        <ele>2011.969</ele>
        <time>2021-03-13T11:18:24Z</time>
      </trkpt>
      <trkpt lat="44.393" lon="7.14828">
        <ele>2012.694</ele>
        <time>2021-03-13T11:18:29Z</time>
      </trkpt>
      <trkpt lat="44.39289" lon="7.14848">
        <ele>2012.636</ele>
        <time>2021-03-13T11:18:34Z</time>
      </trkpt>
      <trkpt lat="44.39281" lon="7.14853">
        <ele>2013.498</ele>
        <time>2021-03-13T11:18:43Z</time>
      </trkpt>
      <trkpt lat="44.39281" lon="7.14863">
        <ele>2014.195</ele>
        <time>2021-03-13T11:18:52Z</time>
      </trkpt>
      <trkpt lat="44.39271" lon="7.14865">
        <ele>1957.192</ele>
        <time>2021-03-13T11:22:28Z</time>
      </trkpt>
      <trkpt lat="44.39278" lon="7.14859">
        <ele>2013.64</ele>
        <time>2021-03-13T11:23:06Z</time>
      </trkpt>
      <trkpt lat="44.39286" lon="7.14861">
        <ele>1915.263</ele>
        <time>2021-03-13T11:23:12Z</time>
      </trkpt>
      <trkpt lat="44.39285" lon="7.14852">
        <ele>1941.65</ele>
        <time>2021-03-13T11:26:20Z</time>
      </trkpt>
      <trkpt lat="44.39278" lon="7.14855">
        <ele>2012.029</ele>
        <time>2021-03-13T11:33:08Z</time>
      </trkpt>
      <trkpt lat="44.39273" lon="7.1486">
        <ele>1919.358</ele>
        <time>2021-03-13T11:34:15Z</time>
      </trkpt>
      <trkpt lat="44.39266" lon="7.1486">
        <ele>1977.645</ele>
        <time>2021-03-13T11:34:22Z</time>
      </trkpt>
      <trkpt lat="44.39259" lon="7.14862">
        <ele>1983.823</ele>
        <time>2021-03-13T11:34:27Z</time>
      </trkpt>
      <trkpt lat="44.39252" lon="7.14865">
        <ele>1984.932</ele>
        <time>2021-03-13T11:34:33Z</time>
      </trkpt>
      <trkpt lat="44.39244" lon="7.14867">
        <ele>1999.81</ele>
        <time>2021-03-13T11:34:39Z</time>
      </trkpt>
      <trkpt lat="44.39238" lon="7.1487">
        <ele>2101.403</ele>
        <time>2021-03-13T11:34:47Z</time>
      </trkpt>
      <trkpt lat="44.39229" lon="7.14868">
        <ele>2042.635</ele>
        <time>2021-03-13T11:34:52Z</time>
      </trkpt>
      <trkpt lat="44.39216" lon="7.14866">
        <ele>1944.064</ele>
        <time>2021-03-13T11:34:57Z</time>
      </trkpt>
      <trkpt lat="44.39206" lon="7.14863">
        <ele>1978.188</ele>
        <time>2021-03-13T11:35:02Z</time>
      </trkpt>
      <trkpt lat="44.392" lon="7.14856">
        <ele>1987.685</ele>
        <time>2021-03-13T11:35:07Z</time>
      </trkpt>
      <trkpt lat="44.39193" lon="7.14855">
        <ele>1997.409</ele>
        <time>2021-03-13T11:35:34Z</time>
      </trkpt>
      <trkpt lat="44.39177" lon="7.14854">
        <ele>2003.147</ele>
        <time>2021-03-13T11:35:38Z</time>
      </trkpt>
      <trkpt lat="44.39167" lon="7.14859">
        <ele>2003.103</ele>
        <time>2021-03-13T11:35:43Z</time>
      </trkpt>
      <trkpt lat="44.39159" lon="7.14864">
        <ele>2004.144</ele>
        <time>2021-03-13T11:35:48Z</time>
      </trkpt>
      <trkpt lat="44.39149" lon="7.14874">
        <ele>2003.726</ele>
        <time>2021-03-13T11:35:53Z</time>
      </trkpt>
      <trkpt lat="44.39142" lon="7.1488">
        <ele>2004.972</ele>
        <time>2021-03-13T11:35:58Z</time>
      </trkpt>
      <trkpt lat="44.39136" lon="7.14883">
        <ele>2005.653</ele>
        <time>2021-03-13T11:36:04Z</time>
      </trkpt>
      <trkpt lat="44.39129" lon="7.14888">
        <ele>1949.9</ele>
        <time>2021-03-13T11:36:09Z</time>
      </trkpt>
      <trkpt lat="44.39113" lon="7.14897">
        <ele>1981.899</ele>
        <time>2021-03-13T11:36:14Z</time>
      </trkpt>
      <trkpt lat="44.39099" lon="7.14906">
        <ele>1992.834</ele>
        <time>2021-03-13T11:36:19Z</time>
      </trkpt>
      <trkpt lat="44.39085" lon="7.14914">
        <ele>1995.364</ele>
        <time>2021-03-13T11:36:24Z</time>
      </trkpt>
      <trkpt lat="44.39072" lon="7.14926">
        <ele>1998.931</ele>
        <time>2021-03-13T11:36:29Z</time>
      </trkpt>
      <trkpt lat="44.39056" lon="7.14944">
        <ele>1999.651</ele>
        <time>2021-03-13T11:36:34Z</time>
      </trkpt>
      <trkpt lat="44.39045" lon="7.14959">
        <ele>1997.714</ele>
        <time>2021-03-13T11:36:39Z</time>
      </trkpt>
      <trkpt lat="44.39042" lon="7.14996">
        <ele>1989.513</ele>
        <time>2021-03-13T11:36:44Z</time>
      </trkpt>
      <trkpt lat="44.39041" lon="7.15021">
        <ele>1991.943</ele>
        <time>2021-03-13T11:36:49Z</time>
      </trkpt>
      <trkpt lat="44.39033" lon="7.15038">
        <ele>1988.307</ele>
        <time>2021-03-13T11:36:54Z</time>
      </trkpt>
      <trkpt lat="44.39034" lon="7.15084">
        <ele>1994.574</ele>
        <time>2021-03-13T11:36:59Z</time>
      </trkpt>
      <trkpt lat="44.39037" lon="7.1511">
        <ele>1983.471</ele>
        <time>2021-03-13T11:37:04Z</time>
      </trkpt>
      <trkpt lat="44.3904" lon="7.15129">
        <ele>1980.745</ele>
        <time>2021-03-13T11:37:09Z</time>
      </trkpt>
      <trkpt lat="44.3904" lon="7.15158">
        <ele>1982.522</ele>
        <time>2021-03-13T11:37:14Z</time>
      </trkpt>
      <trkpt lat="44.39046" lon="7.15198">
        <ele>1981.382</ele>
        <time>2021-03-13T11:37:19Z</time>
      </trkpt>
      <trkpt lat="44.39055" lon="7.15238">
        <ele>1979.59</ele>
        <time>2021-03-13T11:37:24Z</time>
      </trkpt>
      <trkpt lat="44.39061" lon="7.15267">
        <ele>1980.383</ele>
        <time>2021-03-13T11:37:29Z</time>
      </trkpt>
      <trkpt lat="44.39064" lon="7.1528">
        <ele>1996.841</ele>
        <time>2021-03-13T11:37:34Z</time>
      </trkpt>
      <trkpt lat="44.39071" lon="7.15283">
        <ele>1980.426</ele>
        <time>2021-03-13T11:38:29Z</time>
      </trkpt>
      <trkpt lat="44.39079" lon="7.15281">
        <ele>1975.441</ele>
        <time>2021-03-13T11:38:34Z</time>
      </trkpt>
      <trkpt lat="44.39084" lon="7.15295">
        <ele>2169.918</ele>
        <time>2021-03-13T11:38:39Z</time>
      </trkpt>
      <trkpt lat="44.39103" lon="7.15305">
        <ele>2105.957</ele>
        <time>2021-03-13T11:38:44Z</time>
      </trkpt>
      <trkpt lat="44.39104" lon="7.15317">
        <ele>1963.164</ele>
        <time>2021-03-13T11:38:49Z</time>
      </trkpt>
      <trkpt lat="44.39115" lon="7.15306">
        <ele>1960.538</ele>
        <time>2021-03-13T11:38:54Z</time>
      </trkpt>
      <trkpt lat="44.39129" lon="7.153">
        <ele>1958.055</ele>
        <time>2021-03-13T11:38:59Z</time>
      </trkpt>
      <trkpt lat="44.39138" lon="7.15327">
        <ele>2052.97</ele>
        <time>2021-03-13T11:39:04Z</time>
      </trkpt>
      <trkpt lat="44.39152" lon="7.15336">
        <ele>1951.695</ele>
        <time>2021-03-13T11:39:09Z</time>
      </trkpt>
      <trkpt lat="44.39166" lon="7.15355">
        <ele>1952.265</ele>
        <time>2021-03-13T11:39:14Z</time>
      </trkpt>
      <trkpt lat="44.39176" lon="7.15363">
        <ele>1948.286</ele>
        <time>2021-03-13T11:39:19Z</time>
      </trkpt>
      <trkpt lat="44.39182" lon="7.15366">
        <ele>1891.121</ele>
        <time>2021-03-13T11:39:43Z</time>
      </trkpt>
      <trkpt lat="44.39189" lon="7.15379">
        <ele>1947.176</ele>
        <time>2021-03-13T11:39:48Z</time>
      </trkpt>
      <trkpt lat="44.392" lon="7.15384">
        <ele>1942.529</ele>
        <time>2021-03-13T11:39:53Z</time>
      </trkpt>
      <trkpt lat="44.39206" lon="7.15392">
        <ele>1867.214</ele>
        <time>2021-03-13T11:40:30Z</time>
      </trkpt>
      <trkpt lat="44.3921" lon="7.15405">
        <ele>1944.445</ele>
        <time>2021-03-13T11:40:35Z</time>
      </trkpt>
      <trkpt lat="44.39219" lon="7.15419">
        <ele>1932.487</ele>
        <time>2021-03-13T11:40:40Z</time>
      </trkpt>
      <trkpt lat="44.39226" lon="7.15426">
        <ele>1935.727</ele>
        <time>2021-03-13T11:40:45Z</time>
      </trkpt>
      <trkpt lat="44.39238" lon="7.15431">
        <ele>1934.75</ele>
        <time>2021-03-13T11:40:50Z</time>
      </trkpt>
      <trkpt lat="44.39235" lon="7.15439">
        <ele>1944.234</ele>
        <time>2021-03-13T11:41:02Z</time>
      </trkpt>
      <trkpt lat="44.39238" lon="7.15451">
        <ele>1922.298</ele>
        <time>2021-03-13T11:41:11Z</time>
      </trkpt>
      <trkpt lat="44.39246" lon="7.15463">
        <ele>1915.102</ele>
        <time>2021-03-13T11:41:16Z</time>
      </trkpt>
      <trkpt lat="44.39252" lon="7.15476">
        <ele>1912.487</ele>
        <time>2021-03-13T11:41:21Z</time>
      </trkpt>
      <trkpt lat="44.39257" lon="7.15488">
        <ele>1909.123</ele>
        <time>2021-03-13T11:41:26Z</time>
      </trkpt>
      <trkpt lat="44.39259" lon="7.15498">
        <ele>1909.865</ele>
        <time>2021-03-13T11:41:32Z</time>
      </trkpt>
      <trkpt lat="44.39262" lon="7.1551">
        <ele>1836.596</ele>
        <time>2021-03-13T11:42:46Z</time>
      </trkpt>
      <trkpt lat="44.3928" lon="7.15543">
        <ele>1886.043</ele>
        <time>2021-03-13T11:42:51Z</time>
      </trkpt>
      <trkpt lat="44.3929" lon="7.15563">
        <ele>1897.635</ele>
        <time>2021-03-13T11:42:56Z</time>
      </trkpt>
      <trkpt lat="44.39297" lon="7.15584">
        <ele>1903.23</ele>
        <time>2021-03-13T11:43:01Z</time>
      </trkpt>
      <trkpt lat="44.39303" lon="7.15602">
        <ele>1906.714</ele>
        <time>2021-03-13T11:43:06Z</time>
      </trkpt>
      <trkpt lat="44.39309" lon="7.15623">
        <ele>1920.433</ele>
        <time>2021-03-13T11:43:11Z</time>
      </trkpt>
      <trkpt lat="44.39314" lon="7.15649">
        <ele>1875.664</ele>
        <time>2021-03-13T11:43:16Z</time>
      </trkpt>
      <trkpt lat="44.39315" lon="7.1568">
        <ele>1892.616</ele>
        <time>2021-03-13T11:43:21Z</time>
      </trkpt>
      <trkpt lat="44.39326" lon="7.15701">
        <ele>1892.227</ele>
        <time>2021-03-13T11:43:26Z</time>
      </trkpt>
      <trkpt lat="44.39337" lon="7.15714">
        <ele>1894.888</ele>
        <time>2021-03-13T11:43:31Z</time>
      </trkpt>
      <trkpt lat="44.39337" lon="7.15725">
        <ele>1883.396</ele>
        <time>2021-03-13T11:43:36Z</time>
      </trkpt>
      <trkpt lat="44.39346" lon="7.15729">
        <ele>1873.001</ele>
        <time>2021-03-13T11:43:41Z</time>
      </trkpt>
      <trkpt lat="44.39342" lon="7.1575">
        <ele>1881.028</ele>
        <time>2021-03-13T11:43:46Z</time>
      </trkpt>
      <trkpt lat="44.3935" lon="7.15764">
        <ele>1875.93</ele>
        <time>2021-03-13T11:43:51Z</time>
      </trkpt>
      <trkpt lat="44.39352" lon="7.15781">
        <ele>1877.38</ele>
        <time>2021-03-13T11:43:56Z</time>
      </trkpt>
      <trkpt lat="44.39348" lon="7.15793">
        <ele>1875.023</ele>
        <time>2021-03-13T11:44:01Z</time>
      </trkpt>
      <trkpt lat="44.39357" lon="7.15806">
        <ele>1867.108</ele>
        <time>2021-03-13T11:44:06Z</time>
      </trkpt>
      <trkpt lat="44.39376" lon="7.15798">
        <ele>1863.196</ele>
        <time>2021-03-13T11:44:11Z</time>
      </trkpt>
      <trkpt lat="44.39387" lon="7.15805">
        <ele>1855.957</ele>
        <time>2021-03-13T11:44:16Z</time>
      </trkpt>
      <trkpt lat="44.39391" lon="7.15813">
        <ele>1858.282</ele>
        <time>2021-03-13T11:45:54Z</time>
      </trkpt>
      <trkpt lat="44.39377" lon="7.15826">
        <ele>1852.259</ele>
        <time>2021-03-13T11:45:59Z</time>
      </trkpt>
      <trkpt lat="44.39385" lon="7.15828">
        <ele>1846.562</ele>
        <time>2021-03-13T11:46:04Z</time>
      </trkpt>
      <trkpt lat="44.39396" lon="7.15853">
        <ele>1842.209</ele>
        <time>2021-03-13T11:46:09Z</time>
      </trkpt>
      <trkpt lat="44.394" lon="7.15867">
        <ele>1838.063</ele>
        <time>2021-03-13T11:46:14Z</time>
      </trkpt>
      <trkpt lat="44.39394" lon="7.15887">
        <ele>1815.775</ele>
        <time>2021-03-13T11:46:19Z</time>
      </trkpt>
      <trkpt lat="44.39389" lon="7.15898">
        <ele>1824.897</ele>
        <time>2021-03-13T11:46:24Z</time>
      </trkpt>
      <trkpt lat="44.39408" lon="7.15898">
        <ele>1828.272</ele>
        <time>2021-03-13T11:46:29Z</time>
      </trkpt>
      <trkpt lat="44.39416" lon="7.159">
        <ele>1832.44</ele>
        <time>2021-03-13T11:46:34Z</time>
      </trkpt>
      <trkpt lat="44.39427" lon="7.15907">
        <ele>1825.97</ele>
        <time>2021-03-13T11:46:39Z</time>
      </trkpt>
      <trkpt lat="44.39424" lon="7.15919">
        <ele>1821.739</ele>
        <time>2021-03-13T11:46:45Z</time>
      </trkpt>
      <trkpt lat="44.39412" lon="7.15934">
        <ele>1819.599</ele>
        <time>2021-03-13T11:46:50Z</time>
      </trkpt>
      <trkpt lat="44.39408" lon="7.15943">
        <ele>1815.326</ele>
        <time>2021-03-13T11:46:55Z</time>
      </trkpt>
      <trkpt lat="44.39412" lon="7.15957">
        <ele>1813.162</ele>
        <time>2021-03-13T11:47:00Z</time>
      </trkpt>
      <trkpt lat="44.39405" lon="7.15958">
        <ele>1810.276</ele>
        <time>2021-03-13T11:47:05Z</time>
      </trkpt>
      <trkpt lat="44.39393" lon="7.15964">
        <ele>1808.034</ele>
        <time>2021-03-13T11:47:10Z</time>
      </trkpt>
      <trkpt lat="44.39393" lon="7.15991">
        <ele>1803.473</ele>
        <time>2021-03-13T11:47:15Z</time>
      </trkpt>
      <trkpt lat="44.39387" lon="7.15995">
        <ele>1839.932</ele>
        <time>2021-03-13T11:47:23Z</time>
      </trkpt>
      <trkpt lat="44.39379" lon="7.16">
        <ele>1810.707</ele>
        <time>2021-03-13T11:47:29Z</time>
      </trkpt>
      <trkpt lat="44.39376" lon="7.16013">
        <ele>1803.914</ele>
        <time>2021-03-13T11:47:34Z</time>
      </trkpt>
      <trkpt lat="44.39382" lon="7.16028">
        <ele>1798.313</ele>
        <time>2021-03-13T11:47:39Z</time>
      </trkpt>
      <trkpt lat="44.3939" lon="7.16046">
        <ele>1792.438</ele>
        <time>2021-03-13T11:47:44Z</time>
      </trkpt>
      <trkpt lat="44.39397" lon="7.16061">
        <ele>1787.298</ele>
        <time>2021-03-13T11:47:49Z</time>
      </trkpt>
      <trkpt lat="44.39398" lon="7.16077">
        <ele>1783.885</ele>
        <time>2021-03-13T11:47:54Z</time>
      </trkpt>
      <trkpt lat="44.39399" lon="7.16093">
        <ele>1780.796</ele>
        <time>2021-03-13T11:47:59Z</time>
      </trkpt>
      <trkpt lat="44.39395" lon="7.16103">
        <ele>1775.959</ele>
        <time>2021-03-13T11:48:22Z</time>
      </trkpt>
      <trkpt lat="44.39407" lon="7.161">
        <ele>1773.164</ele>
        <time>2021-03-13T11:48:27Z</time>
      </trkpt>
      <trkpt lat="44.39407" lon="7.16125">
        <ele>1767.454</ele>
        <time>2021-03-13T11:48:32Z</time>
      </trkpt>
      <trkpt lat="44.39415" lon="7.16154">
        <ele>1787.934</ele>
        <time>2021-03-13T11:48:37Z</time>
      </trkpt>
      <trkpt lat="44.39422" lon="7.16181">
        <ele>1766.896</ele>
        <time>2021-03-13T11:48:42Z</time>
      </trkpt>
      <trkpt lat="44.39429" lon="7.16198">
        <ele>1760.581</ele>
        <time>2021-03-13T11:48:46Z</time>
      </trkpt>
      <trkpt lat="44.39435" lon="7.16213">
        <ele>1758.146</ele>
        <time>2021-03-13T11:48:52Z</time>
      </trkpt>
      <trkpt lat="44.39433" lon="7.16232">
        <ele>1755.76</ele>
        <time>2021-03-13T11:48:57Z</time>
      </trkpt>
      <trkpt lat="44.39432" lon="7.16246">
        <ele>1751.507</ele>
        <time>2021-03-13T11:49:02Z</time>
      </trkpt>
      <trkpt lat="44.39438" lon="7.16253">
        <ele>1748.249</ele>
        <time>2021-03-13T11:49:08Z</time>
      </trkpt>
      <trkpt lat="44.39444" lon="7.16258">
        <ele>1746.415</ele>
        <time>2021-03-13T11:49:13Z</time>
      </trkpt>
      <trkpt lat="44.39444" lon="7.16269">
        <ele>1743.696</ele>
        <time>2021-03-13T11:49:18Z</time>
      </trkpt>
      <trkpt lat="44.39445" lon="7.1628">
        <ele>1742.034</ele>
        <time>2021-03-13T11:49:23Z</time>
      </trkpt>
      <trkpt lat="44.39457" lon="7.16292">
        <ele>1739.263</ele>
        <time>2021-03-13T11:49:28Z</time>
      </trkpt>
      <trkpt lat="44.39463" lon="7.16313">
        <ele>1737.827</ele>
        <time>2021-03-13T11:49:33Z</time>
      </trkpt>
      <trkpt lat="44.39469" lon="7.16327">
        <ele>1732.915</ele>
        <time>2021-03-13T11:49:38Z</time>
      </trkpt>
      <trkpt lat="44.39484" lon="7.16352">
        <ele>1731.851</ele>
        <time>2021-03-13T11:49:43Z</time>
      </trkpt>
      <trkpt lat="44.39502" lon="7.1638">
        <ele>1730.736</ele>
        <time>2021-03-13T11:49:48Z</time>
      </trkpt>
      <trkpt lat="44.39506" lon="7.16389">
        <ele>1732.991</ele>
        <time>2021-03-13T11:49:53Z</time>
      </trkpt>
      <trkpt lat="44.39513" lon="7.16394">
        <ele>1730.505</ele>
        <time>2021-03-13T11:50:16Z</time>
      </trkpt>
      <trkpt lat="44.39521" lon="7.16405">
        <ele>1729.826</ele>
        <time>2021-03-13T11:50:21Z</time>
      </trkpt>
      <trkpt lat="44.39527" lon="7.16427">
        <ele>1728.728</ele>
        <time>2021-03-13T11:50:26Z</time>
      </trkpt>
      <trkpt lat="44.39532" lon="7.16442">
        <ele>1729.55</ele>
        <time>2021-03-13T11:50:31Z</time>
      </trkpt>
      <trkpt lat="44.39538" lon="7.16461">
        <ele>1728.54</ele>
        <time>2021-03-13T11:50:36Z</time>
      </trkpt>
      <trkpt lat="44.39547" lon="7.16484">
        <ele>1725.267</ele>
        <time>2021-03-13T11:50:41Z</time>
      </trkpt>
      <trkpt lat="44.39552" lon="7.16499">
        <ele>1726.879</ele>
        <time>2021-03-13T11:50:46Z</time>
      </trkpt>
      <trkpt lat="44.39555" lon="7.16512">
        <ele>1725.394</ele>
        <time>2021-03-13T11:50:51Z</time>
      </trkpt>
      <trkpt lat="44.39564" lon="7.16528">
        <ele>1723.161</ele>
        <time>2021-03-13T11:50:56Z</time>
      </trkpt>
      <trkpt lat="44.3957" lon="7.16539">
        <ele>1723.287</ele>
        <time>2021-03-13T11:51:01Z</time>
      </trkpt>
      <trkpt lat="44.39576" lon="7.16553">
        <ele>1722.746</ele>
        <time>2021-03-13T11:51:06Z</time>
      </trkpt>
      <trkpt lat="44.39582" lon="7.16571">
        <ele>1724.128</ele>
        <time>2021-03-13T11:51:11Z</time>
      </trkpt>
      <trkpt lat="44.3959" lon="7.16585">
        <ele>1724.313</ele>
        <time>2021-03-13T11:51:16Z</time>
      </trkpt>
      <trkpt lat="44.39597" lon="7.16599">
        <ele>1722.68</ele>
        <time>2021-03-13T11:51:21Z</time>
      </trkpt>
      <trkpt lat="44.39601" lon="7.16617">
        <ele>1721.815</ele>
        <time>2021-03-13T11:51:26Z</time>
      </trkpt>
      <trkpt lat="44.39604" lon="7.16637">
        <ele>1722.474</ele>
        <time>2021-03-13T11:51:31Z</time>
      </trkpt>
      <trkpt lat="44.39605" lon="7.16649">
        <ele>1723.142</ele>
        <time>2021-03-13T11:51:36Z</time>
      </trkpt>
      <trkpt lat="44.39602" lon="7.16657">
        <ele>1726.707</ele>
        <time>2021-03-13T11:51:47Z</time>
      </trkpt>
      <trkpt lat="44.39605" lon="7.16667">
        <ele>1728.006</ele>
        <time>2021-03-13T11:51:55Z</time>
      </trkpt>
      <trkpt lat="44.39609" lon="7.16683">
        <ele>1727.889</ele>
        <time>2021-03-13T11:52:00Z</time>
      </trkpt>
      <trkpt lat="44.3961" lon="7.167">
        <ele>1726.511</ele>
        <time>2021-03-13T11:52:05Z</time>
      </trkpt>
      <trkpt lat="44.39612" lon="7.16718">
        <ele>1725.664</ele>
        <time>2021-03-13T11:52:10Z</time>
      </trkpt>
      <trkpt lat="44.39617" lon="7.16734">
        <ele>1723.114</ele>
        <time>2021-03-13T11:52:15Z</time>
      </trkpt>
      <trkpt lat="44.39624" lon="7.1675">
        <ele>1722.17</ele>
        <time>2021-03-13T11:52:20Z</time>
      </trkpt>
      <trkpt lat="44.39632" lon="7.1677">
        <ele>1721.648</ele>
        <time>2021-03-13T11:52:25Z</time>
      </trkpt>
      <trkpt lat="44.39637" lon="7.16784">
        <ele>1722.775</ele>
        <time>2021-03-13T11:52:30Z</time>
      </trkpt>
      <trkpt lat="44.39635" lon="7.16797">
        <ele>1722.961</ele>
        <time>2021-03-13T11:54:17Z</time>
      </trkpt>
      <trkpt lat="44.39649" lon="7.16818">
        <ele>1720.691</ele>
        <time>2021-03-13T11:54:22Z</time>
      </trkpt>
      <trkpt lat="44.39652" lon="7.16838">
        <ele>1717.68</ele>
        <time>2021-03-13T11:54:27Z</time>
      </trkpt>
      <trkpt lat="44.39658" lon="7.16834">
        <ele>1713.514</ele>
        <time>2021-03-13T11:54:32Z</time>
      </trkpt>
      <trkpt lat="44.39672" lon="7.16853">
        <ele>1709.343</ele>
        <time>2021-03-13T11:54:37Z</time>
      </trkpt>
      <trkpt lat="44.39685" lon="7.16866">
        <ele>1700.366</ele>
        <time>2021-03-13T11:54:42Z</time>
      </trkpt>
      <trkpt lat="44.39684" lon="7.16895">
        <ele>1694.251</ele>
        <time>2021-03-13T11:54:47Z</time>
      </trkpt>
      <trkpt lat="44.39683" lon="7.16912">
        <ele>1691.967</ele>
        <time>2021-03-13T11:54:50Z</time>
      </trkpt>
      <trkpt lat="44.39677" lon="7.16916">
        <ele>1684.315</ele>
        <time>2021-03-13T11:55:49Z</time>
      </trkpt>
      <trkpt lat="44.39669" lon="7.16923">
        <ele>1679.643</ele>
        <time>2021-03-13T11:55:54Z</time>
      </trkpt>
      <trkpt lat="44.39667" lon="7.16932">
        <ele>1676.315</ele>
        <time>2021-03-13T11:55:59Z</time>
      </trkpt>
      <trkpt lat="44.39661" lon="7.16937">
        <ele>1675.064</ele>
        <time>2021-03-13T11:56:12Z</time>
      </trkpt>
      <trkpt lat="44.39655" lon="7.16955">
        <ele>1673.077</ele>
        <time>2021-03-13T11:56:17Z</time>
      </trkpt>
      <trkpt lat="44.39648" lon="7.16974">
        <ele>1668.468</ele>
        <time>2021-03-13T11:56:22Z</time>
      </trkpt>
      <trkpt lat="44.39643" lon="7.17003">
        <ele>1669.082</ele>
        <time>2021-03-13T11:56:27Z</time>
      </trkpt>
      <trkpt lat="44.39647" lon="7.17022">
        <ele>1666.759</ele>
        <time>2021-03-13T11:56:32Z</time>
      </trkpt>
      <trkpt lat="44.39644" lon="7.17037">
        <ele>1667.551</ele>
        <time>2021-03-13T11:56:37Z</time>
      </trkpt>
      <trkpt lat="44.39647" lon="7.17048">
        <ele>1666.275</ele>
        <time>2021-03-13T11:56:44Z</time>
      </trkpt>
      <trkpt lat="44.39649" lon="7.17059">
        <ele>1664.047</ele>
        <time>2021-03-13T11:56:51Z</time>
      </trkpt>
      <trkpt lat="44.39649" lon="7.17076">
        <ele>1663.247</ele>
        <time>2021-03-13T11:56:56Z</time>
      </trkpt>
      <trkpt lat="44.39657" lon="7.17072">
        <ele>1656.735</ele>
        <time>2021-03-13T11:57:03Z</time>
      </trkpt>
      <trkpt lat="44.39664" lon="7.17067">
        <ele>1660.649</ele>
        <time>2021-03-13T11:57:08Z</time>
      </trkpt>
      <trkpt lat="44.39671" lon="7.17061">
        <ele>1654.144</ele>
        <time>2021-03-13T11:57:13Z</time>
      </trkpt>
      <trkpt lat="44.39676" lon="7.17067">
        <ele>1647.833</ele>
        <time>2021-03-13T11:57:19Z</time>
      </trkpt>
      <trkpt lat="44.39682" lon="7.1706">
        <ele>1645.421</ele>
        <time>2021-03-13T11:57:28Z</time>
      </trkpt>
      <trkpt lat="44.39689" lon="7.1705">
        <ele>1643.883</ele>
        <time>2021-03-13T11:57:33Z</time>
      </trkpt>
      <trkpt lat="44.39692" lon="7.1706">
        <ele>1639.996</ele>
        <time>2021-03-13T11:57:38Z</time>
      </trkpt>
      <trkpt lat="44.39698" lon="7.17058">
        <ele>1633.102</ele>
        <time>2021-03-13T11:57:47Z</time>
      </trkpt>
      <trkpt lat="44.39705" lon="7.17063">
        <ele>1626.084</ele>
        <time>2021-03-13T11:57:52Z</time>
      </trkpt>
      <trkpt lat="44.39713" lon="7.17065">
        <ele>1622.846</ele>
        <time>2021-03-13T11:57:57Z</time>
      </trkpt>
      <trkpt lat="44.39713" lon="7.17088">
        <ele>1623.514</ele>
        <time>2021-03-13T11:58:02Z</time>
      </trkpt>
      <trkpt lat="44.3971" lon="7.1711">
        <ele>1619.789</ele>
        <time>2021-03-13T11:58:07Z</time>
      </trkpt>
      <trkpt lat="44.39708" lon="7.17131">
        <ele>1619.018</ele>
        <time>2021-03-13T11:58:12Z</time>
      </trkpt>
      <trkpt lat="44.39705" lon="7.17152">
        <ele>1620.516</ele>
        <time>2021-03-13T11:58:17Z</time>
      </trkpt>
      <trkpt lat="44.397" lon="7.17177">
        <ele>1619.028</ele>
        <time>2021-03-13T11:58:22Z</time>
      </trkpt>
      <trkpt lat="44.39699" lon="7.17192">
        <ele>1616.965</ele>
        <time>2021-03-13T11:58:27Z</time>
      </trkpt>
      <trkpt lat="44.39707" lon="7.17194">
        <ele>1615.033</ele>
        <time>2021-03-13T11:58:36Z</time>
      </trkpt>
      <trkpt lat="44.39715" lon="7.1719">
        <ele>1614.572</ele>
        <time>2021-03-13T11:58:41Z</time>
      </trkpt>
      <trkpt lat="44.39723" lon="7.17189">
        <ele>1614.869</ele>
        <time>2021-03-13T11:58:46Z</time>
      </trkpt>
      <trkpt lat="44.39734" lon="7.17189">
        <ele>1613.82</ele>
        <time>2021-03-13T11:58:51Z</time>
      </trkpt>
      <trkpt lat="44.39743" lon="7.17197">
        <ele>1615.677</ele>
        <time>2021-03-13T11:58:56Z</time>
      </trkpt>
      <trkpt lat="44.39746" lon="7.17207">
        <ele>1613.71</ele>
        <time>2021-03-13T11:59:01Z</time>
      </trkpt>
      <trkpt lat="44.39748" lon="7.17219">
        <ele>1612.932</ele>
        <time>2021-03-13T11:59:06Z</time>
      </trkpt>
      <trkpt lat="44.39746" lon="7.17247">
        <ele>1612.8</ele>
        <time>2021-03-13T11:59:11Z</time>
      </trkpt>
      <trkpt lat="44.39745" lon="7.17283">
        <ele>1611.416</ele>
        <time>2021-03-13T11:59:16Z</time>
      </trkpt>
      <trkpt lat="44.39748" lon="7.17326">
        <ele>1609.667</ele>
        <time>2021-03-13T11:59:21Z</time>
      </trkpt>
      <trkpt lat="44.39753" lon="7.17367">
        <ele>1608.692</ele>
        <time>2021-03-13T11:59:26Z</time>
      </trkpt>
      <trkpt lat="44.39766" lon="7.17409">
        <ele>1607.47</ele>
        <time>2021-03-13T11:59:31Z</time>
      </trkpt>
      <trkpt lat="44.39782" lon="7.17427">
        <ele>1609.132</ele>
        <time>2021-03-13T11:59:36Z</time>
      </trkpt>
      <trkpt lat="44.39788" lon="7.17429">
        <ele>1611.31</ele>
        <time>2021-03-13T11:59:43Z</time>
      </trkpt>
      <trkpt lat="44.39793" lon="7.17435">
        <ele>1608.586</ele>
        <time>2021-03-13T12:00:44Z</time>
      </trkpt>
      <trkpt lat="44.398" lon="7.17439">
        <ele>1609.483</ele>
        <time>2021-03-13T12:00:52Z</time>
      </trkpt>
      <trkpt lat="44.39806" lon="7.17435">
        <ele>1608.193</ele>
        <time>2021-03-13T12:01:04Z</time>
      </trkpt>
      <trkpt lat="44.39813" lon="7.17435">
        <ele>1610.858</ele>
        <time>2021-03-13T12:01:11Z</time>
      </trkpt>
      <trkpt lat="44.39817" lon="7.17428">
        <ele>1608.238</ele>
        <time>2021-03-13T12:01:22Z</time>
      </trkpt>
      <trkpt lat="44.39823" lon="7.17422">
        <ele>1609.307</ele>
        <time>2021-03-13T12:01:29Z</time>
      </trkpt>
      <trkpt lat="44.39829" lon="7.17424">
        <ele>1611.079</ele>
        <time>2021-03-13T12:01:34Z</time>
      </trkpt>
      <trkpt lat="44.39837" lon="7.17427">
        <ele>1613.01</ele>
        <time>2021-03-13T12:01:40Z</time>
      </trkpt>
      <trkpt lat="44.39844" lon="7.1743">
        <ele>1614.786</ele>
        <time>2021-03-13T12:01:46Z</time>
      </trkpt>
      <trkpt lat="44.39837" lon="7.17428">
        <ele>1615.634</ele>
        <time>2021-03-13T12:03:04Z</time>
      </trkpt>
      <trkpt lat="44.39843" lon="7.17431">
        <ele>1617.98</ele>
        <time>2021-03-13T12:03:20Z</time>
      </trkpt>
    </trkseg>
  </trk>
</gpx>